Observation data for Amarillo 9 North Northeast on 05/26/2019      Previous  Date  Next       Current Mesonet Observations  Soil Data  Daily Summary Page  Observations in Plain Language
KAM2 260500Z 17016KT 20/18 A2993 RMK A01 T02010180  RH  088%=      5-min Rain = 0
KAM2 260501Z 17016KT 20/18 A2993 RMK A01 T02010180  RH  088%=      5-min Rain = 0
KAM2 260502Z 17014KT 20/18 A2993 RMK A01 T02010180  RH  088%=      5-min Rain = 0
KAM2 260503Z 17014KT 20/18 A2993 RMK A01 T02010180  RH  088%=      5-min Rain = 0
KAM2 260504Z 17016KT 20/18 A2993 RMK A01 T02010181  RH  088%=      5-min Rain = 0
KAM2 260505Z 17015KT 20/18 A2993 RMK A01 T02010181  RH  088%=      5-min Rain = 0
KAM2 260506Z 17014KT 20/18 A2993 RMK A01 T02010180  RH  088%=      5-min Rain = 0
KAM2 260507Z 17015KT 20/18 A2994 RMK A01 T02010180  RH  088%=      5-min Rain = 0
KAM2 260508Z 17015KT 20/18 A2994 RMK A01 T02010181  RH  088%=      5-min Rain = 0
KAM2 260509Z 17016KT 20/18 A2994 RMK A01 T02010180  RH  088%=      5-min Rain = 0
KAM2 260510Z 17016KT 20/18 A2994 RMK A01 T02010181  RH  088%=      5-min Rain = 0
KAM2 260511Z 17014KT 20/18 A2994 RMK A01 T02010181  RH  088%=      5-min Rain = 0
KAM2 260512Z 17016G21KT 20/18 A2994 RMK A01 T02010181  RH  088%=      5-min Rain = 0
KAM2 260513Z 17017KT 20/18 A2994 RMK A01 T02010181  RH  088%=      5-min Rain = 0
KAM2 260514Z 17017KT 20/18 A2994 RMK A01 T02010181  RH  088%=      5-min Rain = 0
KAM2 260515Z 17016KT 20/18 A2994 RMK A01 T02010181  RH  088%=      5-min Rain = 0
KAM2 260516Z 17015KT 20/18 A2994 RMK A01 T02020181  RH  088%=      5-min Rain = 0
KAM2 260517Z 17017KT 20/18 A2994 RMK A01 T02020181  RH  088%=      5-min Rain = 0
KAM2 260518Z 18016KT 20/18 A2994 RMK A01 T02020181  RH  088%=      5-min Rain = 0
KAM2 260519Z 18014KT 20/18 A2994 RMK A01 T02020181  RH  088%=      5-min Rain = 0
KAM2 260520Z 17017KT 20/18 A2994 RMK A01 T02030182  RH  088%=      5-min Rain = 0
KAM2 260521Z 17016KT 20/18 A2994 RMK A01 T02030182  RH  088%=      5-min Rain = 0
KAM2 260522Z 18016KT 20/18 A2994 RMK A01 T02030182  RH  088%=      5-min Rain = 0
KAM2 260523Z 18015KT 20/18 A2994 RMK A01 T02030182  RH  088%=      5-min Rain = 0
KAM2 260524Z 18014KT 20/18 A2994 RMK A01 T02030181  RH  087%=      5-min Rain = 0
KAM2 260525Z 17017KT 20/18 A2994 RMK A01 T02030182  RH  088%=      5-min Rain = 0
KAM2 260526Z 17016KT 20/18 A2994 RMK A01 T02030182  RH  088%=      5-min Rain = 0
KAM2 260527Z 17015KT 20/18 A2994 RMK A01 T02030182  RH  088%=      5-min Rain = 0
KAM2 260528Z 17015KT 20/18 A2994 RMK A01 T02020182  RH  088%=      5-min Rain = 0
KAM2 260529Z 18017KT 20/18 A2994 RMK A01 T02020182  RH  088%=      5-min Rain = 0
KAM2 260530Z 17015KT 20/18 A2994 RMK A01 T02020182  RH  088%=      5-min Rain = 0
KAM2 260531Z 18015KT 20/18 A2994 RMK A01 T02020182  RH  088%=      5-min Rain = 0
KAM2 260532Z 18017KT 20/18 A2994 RMK A01 T02020182  RH  088%=      5-min Rain = 0
KAM2 260533Z 17017KT 20/18 A2994 RMK A01 T02020182  RH  088%=      5-min Rain = 0
KAM2 260534Z 17015KT 20/18 A2994 RMK A01 T02030182  RH  088%=      5-min Rain = 0
KAM2 260535Z 18016KT 20/18 A2994 RMK A01 T02030183  RH  088%=      5-min Rain = 0
KAM2 260536Z 18017KT 20/18 A2994 RMK A01 T02030183  RH  088%=      5-min Rain = 0
KAM2 260537Z 17017KT 20/18 A2994 RMK A01 T02030183  RH  088%=      5-min Rain = 0
KAM2 260538Z 17016KT 20/18 A2994 RMK A01 T02030183  RH  088%=      5-min Rain = 0
KAM2 260539Z 18018KT 20/18 A2994 RMK A01 T02030183  RH  088%=      5-min Rain = 0
KAM2 260540Z 18015G20KT 20/18 A2994 RMK A01 T02030182  RH  088%=      5-min Rain = 0
KAM2 260541Z 18016KT 20/18 A2994 RMK A01 T02030183  RH  088%=      5-min Rain = 0
KAM2 260542Z 18016KT 20/18 A2994 RMK A01 T02030183  RH  088%=      5-min Rain = 0
KAM2 260543Z 18017KT 20/18 A2994 RMK A01 T02030183  RH  088%=      5-min Rain = 0
KAM2 260544Z 18016G21KT 20/18 A2994 RMK A01 T02030183  RH  088%=      5-min Rain = 0
KAM2 260545Z 18017KT 20/18 A2994 RMK A01 T02020182  RH  088%=      5-min Rain = 0
KAM2 260546Z 17016KT 20/18 A2994 RMK A01 T02030183  RH  088%=      5-min Rain = 0
KAM2 260547Z 18015G21KT 20/18 A2994 RMK A01 T02020182  RH  088%=      5-min Rain = 0
KAM2 260548Z 17016KT 20/18 A2994 RMK A01 T02020182  RH  089%=      5-min Rain = 0
KAM2 260549Z 17018KT 20/18 A2994 RMK A01 T02020182  RH  089%=      5-min Rain = 0
KAM2 260550Z 18017G22KT 20/18 A2994 RMK A01 T02020183  RH  089%=      5-min Rain = 0
KAM2 260551Z 17017KT 20/18 A2994 RMK A01 T02020183  RH  089%=      5-min Rain = 0
KAM2 260552Z 17019KT 20/18 A2994 RMK A01 T02020183  RH  089%=      5-min Rain = 0
KAM2 260553Z 18018G23KT 20/18 A2994 RMK A01 T02020182  RH  089%=      5-min Rain = 0
KAM2 260554Z 17017G22KT 20/18 A2994 RMK A01 T02020182  RH  089%=      5-min Rain = 0
KAM2 260555Z 18015KT 20/18 A2995 RMK A01 T02020182  RH  089%=      5-min Rain = 0
KAM2 260556Z 18014KT 20/18 A2995 RMK A01 T02020182  RH  089%=      5-min Rain = 0
KAM2 260557Z 18015G21KT 20/18 A2995 RMK A01 T02010182  RH  089%=      5-min Rain = 0
KAM2 260558Z 18015G20KT 20/18 A2995 RMK A01 T02010182  RH  089%=      5-min Rain = 0
KAM2 260559Z 17016KT 20/18 A2995 RMK A01 T02000182  RH  089%=      5-min Rain = 0
KAM2 260600Z 18017KT 20/18 A2995 RMK A01 T02000182  RH  089%=      5-min Rain = 0
KAM2 260601Z 17015KT 20/18 A2995 RMK A01 T02000182  RH  089%=      5-min Rain = 0
KAM2 260602Z 17015KT 20/18 A2994 RMK A01 T02000182  RH  089%=      5-min Rain = 0
KAM2 260603Z 17015KT 20/18 A2994 RMK A01 T01990182  RH  089%=      5-min Rain = 0
KAM2 260604Z 17017KT 20/18 A2994 RMK A01 T01990182  RH  090%=      5-min Rain = 0
KAM2 260605Z 17015KT 20/18 A2994 RMK A01 T01990182  RH  090%=      5-min Rain = 0
KAM2 260606Z 17015KT 20/18 A2995 RMK A01 T01990182  RH  090%=      5-min Rain = 0
KAM2 260607Z 17014G19KT 20/18 A2995 RMK A01 T01990182  RH  090%=      5-min Rain = 0
KAM2 260608Z 17014KT 20/18 A2995 RMK A01 T01980182  RH  090%=      5-min Rain = 0
KAM2 260609Z 17016KT 20/18 A2995 RMK A01 T01980181  RH  090%=      5-min Rain = 0
KAM2 260610Z 17015KT 20/18 A2995 RMK A01 T01980182  RH  090%=      5-min Rain = 0
KAM2 260611Z 17015KT 20/18 A2995 RMK A01 T01980182  RH  090%=      5-min Rain = 0
KAM2 260612Z 17014KT 20/18 A2995 RMK A01 T01980182  RH  090%=      5-min Rain = 0
KAM2 260613Z 17015KT 20/18 A2995 RMK A01 T01970181  RH  090%=      5-min Rain = 0
KAM2 260614Z 18013KT 20/18 A2995 RMK A01 T01970181  RH  091%=      5-min Rain = 0
KAM2 260615Z 18013KT 20/18 A2995 RMK A01 T01960181  RH  091%=      5-min Rain = 0
KAM2 260616Z 18014KT 20/18 A2995 RMK A01 T01960181  RH  091%=      5-min Rain = 0
KAM2 260617Z 17013KT 20/18 A2995 RMK A01 T01950181  RH  091%=      5-min Rain = 0
KAM2 260618Z 18014KT 20/18 A2995 RMK A01 T01950181  RH  091%=      5-min Rain = 0
KAM2 260619Z 17015KT 20/18 A2995 RMK A01 T01950180  RH  091%=      5-min Rain = 0
KAM2 260620Z 18016KT 20/18 A2995 RMK A01 T01950181  RH  091%=      5-min Rain = 0
KAM2 260621Z 17014KT 20/18 A2995 RMK A01 T01950180  RH  091%=      5-min Rain = 0
KAM2 260622Z 17014G19KT 19/18 A2995 RMK A01 T01940180  RH  091%=      5-min Rain = 0
KAM2 260623Z 17015KT 20/18 A2995 RMK A01 T01950181  RH  092%=      5-min Rain = 0
KAM2 260624Z 17013KT 20/18 A2995 RMK A01 T01950181  RH  092%=      5-min Rain = 0
KAM2 260625Z 17014KT 19/18 A2995 RMK A01 T01940181  RH  092%=      5-min Rain = 0
KAM2 260626Z 17013G18KT 19/18 A2995 RMK A01 T01940181  RH  092%=      5-min Rain = 0
KAM2 260627Z 17014KT 19/18 A2995 RMK A01 T01940181  RH  092%=      5-min Rain = 0
KAM2 260628Z 17014KT 19/18 A2995 RMK A01 T01940181  RH  092%=      5-min Rain = 0
KAM2 260629Z 17013KT 19/18 A2995 RMK A01 T01940181  RH  092%=      5-min Rain = 0
KAM2 260630Z 17012KT 19/18 A2995 RMK A01 T01940181  RH  092%=      5-min Rain = 0
KAM2 260631Z 17013KT 19/18 A2995 RMK A01 T01940181  RH  092%=      5-min Rain = 0
KAM2 260632Z 17013KT 19/18 A2995 RMK A01 T01940181  RH  092%=      5-min Rain = 0
KAM2 260633Z 17011KT 19/18 A2995 RMK A01 T01940181  RH  092%=      5-min Rain = 0
KAM2 260634Z 17013KT 19/18 A2995 RMK A01 T01930181  RH  092%=      5-min Rain = 0
KAM2 260635Z 17014KT 19/18 A2995 RMK A01 T01930181  RH  092%=      5-min Rain = 0
KAM2 260636Z 17014KT 19/18 A2996 RMK A01 T01930181  RH  092%=      5-min Rain = 0
KAM2 260637Z 17013KT 19/18 A2995 RMK A01 T01930181  RH  092%=      5-min Rain = 0
KAM2 260638Z 17014KT 19/18 A2995 RMK A01 T01930181  RH  092%=      5-min Rain = 0
KAM2 260639Z 16014KT 19/18 A2995 RMK A01 T01930181  RH  093%=      5-min Rain = 0
KAM2 260640Z 16014KT 19/18 A2995 RMK A01 T01930181  RH  093%=      5-min Rain = 0
KAM2 260641Z 17015KT 19/18 A2995 RMK A01 T01930181  RH  093%=      5-min Rain = 0
KAM2 260642Z 16013KT 19/18 A2995 RMK A01 T01930181  RH  093%=      5-min Rain = 0
KAM2 260643Z 16012KT 19/18 A2995 RMK A01 T01920180  RH  093%=      5-min Rain = 0
KAM2 260644Z 17014KT 19/18 A2995 RMK A01 T01920181  RH  093%=      5-min Rain = 0
KAM2 260645Z 17013KT 19/18 A2995 RMK A01 T01920180  RH  093%=      5-min Rain = 0
KAM2 260646Z 16013KT 19/18 A2995 RMK A01 T01920180  RH  093%=      5-min Rain = 0
KAM2 260647Z 16012KT 19/18 A2995 RMK A01 T01920180  RH  093%=      5-min Rain = 0
KAM2 260648Z 17013KT 19/18 A2995 RMK A01 T01910180  RH  093%=      5-min Rain = 0
KAM2 260649Z 16012KT 19/18 A2995 RMK A01 T01910180  RH  093%=      5-min Rain = 0
KAM2 260650Z 16010G15KT 19/18 A2995 RMK A01 T01910180  RH  093%=      5-min Rain = 0
KAM2 260651Z 16013KT 19/18 A2995 RMK A01 T01900180  RH  094%=      5-min Rain = 0
KAM2 260652Z 17013KT 19/18 A2995 RMK A01 T01900180  RH  094%=      5-min Rain = 0
KAM2 260653Z 17012KT 19/18 A2995 RMK A01 T01900180  RH  094%=      5-min Rain = 0
KAM2 260654Z 17012KT 19/18 A2995 RMK A01 T01900180  RH  094%=      5-min Rain = 0
KAM2 260655Z 16013KT 19/18 A2995 RMK A01 T01900180  RH  094%=      5-min Rain = 0
KAM2 260656Z 17015KT 19/18 A2995 RMK A01 T01900180  RH  094%=      5-min Rain = 0
KAM2 260657Z 17013KT 19/18 A2995 RMK A01 T01900180  RH  094%=      5-min Rain = 0
KAM2 260658Z 17013KT 19/18 A2995 RMK A01 T01900180  RH  094%=      5-min Rain = 0
KAM2 260659Z 17014KT 19/18 A2995 RMK A01 T01890179  RH  094%=      5-min Rain = 0
KAM2 260700Z 16012KT 19/18 A2995 RMK A01 T01890179  RH  094%=      5-min Rain = 0
KAM2 260701Z 17012KT 19/18 A2995 RMK A01 T01890179  RH  094%=      5-min Rain = 0
KAM2 260702Z 17012KT 19/18 A2995 RMK A01 T01880179  RH  094%=      5-min Rain = 0
KAM2 260703Z 17013KT 19/18 A2995 RMK A01 T01880179  RH  094%=      5-min Rain = 0
KAM2 260704Z 17012KT 19/18 A2995 RMK A01 T01880179  RH  094%=      5-min Rain = 0
KAM2 260705Z 16012G17KT 19/18 A2995 RMK A01 T01880179  RH  094%=      5-min Rain = 0
KAM2 260706Z 16013KT 19/18 A2995 RMK A01 T01880179  RH  094%=      5-min Rain = 0
KAM2 260707Z 17013KT 19/18 A2995 RMK A01 T01880179  RH  095%=      5-min Rain = 0
KAM2 260708Z 16014KT 19/18 A2995 RMK A01 T01870179  RH  095%=      5-min Rain = 0
KAM2 260709Z 16012KT 19/18 A2995 RMK A01 T01870179  RH  095%=      5-min Rain = 0
KAM2 260710Z 16013KT 19/18 A2995 RMK A01 T01870178  RH  095%=      5-min Rain = 0
KAM2 260711Z 17011KT 19/18 A2995 RMK A01 T01870179  RH  095%=      5-min Rain = 0
KAM2 260712Z 16013KT 19/18 A2995 RMK A01 T01870178  RH  095%=      5-min Rain = 0
KAM2 260713Z 16013KT 19/18 A2995 RMK A01 T01870178  RH  095%=      5-min Rain = 0
KAM2 260714Z 16013KT 19/18 A2995 RMK A01 T01860178  RH  095%=      5-min Rain = 0
KAM2 260715Z 16012KT 19/18 A2995 RMK A01 T01870179  RH  095%=      5-min Rain = 0
KAM2 260716Z 17012KT 19/18 A2995 RMK A01 T01860178  RH  095%=      5-min Rain = 0
KAM2 260717Z 17012KT 19/18 A2995 RMK A01 T01860178  RH  095%=      5-min Rain = 0
KAM2 260718Z 16012KT 19/18 A2995 RMK A01 T01860178  RH  095%=      5-min Rain = 0
KAM2 260719Z 17012KT 19/18 A2995 RMK A01 T01860178  RH  095%=      5-min Rain = 0
KAM2 260720Z 16011KT 19/18 A2995 RMK A01 T01860178  RH  095%=      5-min Rain = 0
KAM2 260721Z 16013KT 19/18 A2995 RMK A01 T01850178  RH  095%=      5-min Rain = 0
KAM2 260722Z 16012KT 19/18 A2995 RMK A01 T01860178  RH  095%=      5-min Rain = 0
KAM2 260723Z 16012KT 19/18 A2995 RMK A01 T01860178  RH  095%=      5-min Rain = 0
KAM2 260724Z 16011KT 19/18 A2995 RMK A01 T01860178  RH  095%=      5-min Rain = 0
KAM2 260725Z 16013KT 19/18 A2995 RMK A01 T01860178  RH  095%=      5-min Rain = 0
KAM2 260726Z 16013KT 19/18 A2995 RMK A01 T01860178  RH  095%=      5-min Rain = 0
KAM2 260727Z 16012KT 19/18 A2995 RMK A01 T01860178  RH  095%=      5-min Rain = 0
KAM2 260728Z 16013KT 19/18 A2995 RMK A01 T01860178  RH  095%=      5-min Rain = 0
KAM2 260729Z 16012KT 19/18 A2995 RMK A01 T01860178  RH  095%=      5-min Rain = 0
KAM2 260730Z 16011KT 19/18 A2995 RMK A01 T01860178  RH  095%=      5-min Rain = 0
KAM2 260731Z 17012KT 19/18 A2995 RMK A01 T01860178  RH  095%=      5-min Rain = 0
KAM2 260732Z 16014KT 19/18 A2995 RMK A01 T01860178  RH  095%=      5-min Rain = 0
KAM2 260733Z 16014KT 19/18 A2995 RMK A01 T01860178  RH  095%=      5-min Rain = 0
KAM2 260734Z 16014KT 19/18 A2995 RMK A01 T01860177  RH  095%=      5-min Rain = 0
KAM2 260735Z 16014KT 19/18 A2995 RMK A01 T01860177  RH  095%=      5-min Rain = 0
KAM2 260736Z 16011KT 19/18 A2995 RMK A01 T01860177  RH  095%=      5-min Rain = 0
KAM2 260737Z 17012KT 19/18 A2995 RMK A01 T01850177  RH  095%=      5-min Rain = 0
KAM2 260738Z 16012KT 19/18 A2995 RMK A01 T01850176  RH  095%=      5-min Rain = 0
KAM2 260739Z 16013KT 19/18 A2995 RMK A01 T01850176  RH  095%=      5-min Rain = 0
KAM2 260740Z 16014KT 18/18 A2995 RMK A01 T01840176  RH  095%=      5-min Rain = 0
KAM2 260741Z 16014KT 18/18 A2995 RMK A01 T01840176  RH  095%=      5-min Rain = 0
KAM2 260742Z 17013KT 18/18 A2995 RMK A01 T01840176  RH  095%=      5-min Rain = 0
KAM2 260743Z 17014KT 18/18 A2995 RMK A01 T01840176  RH  095%=      5-min Rain = 0
KAM2 260744Z 16011KT 18/18 A2995 RMK A01 T01840175  RH  095%=      5-min Rain = 0
KAM2 260745Z 16014KT 18/18 A2995 RMK A01 T01840175  RH  095%=      5-min Rain = 0
KAM2 260746Z 17012KT 18/18 A2995 RMK A01 T01830175  RH  095%=      5-min Rain = 0
KAM2 260747Z 17011KT 18/18 A2995 RMK A01 T01830175  RH  095%=      5-min Rain = 0
KAM2 260748Z 17013KT 18/17 A2995 RMK A01 T01820174  RH  095%=      5-min Rain = 0
KAM2 260749Z 17011KT 18/18 A2995 RMK A01 T01820175  RH  095%=      5-min Rain = 0
KAM2 260750Z 17011KT 18/17 A2995 RMK A01 T01820174  RH  095%=      5-min Rain = 0
KAM2 260751Z 17012KT 18/17 A2995 RMK A01 T01820174  RH  095%=      5-min Rain = 0
KAM2 260752Z 17013KT 18/17 A2995 RMK A01 T01810174  RH  095%=      5-min Rain = 0
KAM2 260753Z 16012KT 18/17 A2995 RMK A01 T01820174  RH  095%=      5-min Rain = 0
KAM2 260754Z 17014KT 18/17 A2995 RMK A01 T01810174  RH  095%=      5-min Rain = 0
KAM2 260755Z 17011KT 18/17 A2995 RMK A01 T01810174  RH  095%=      5-min Rain = 0
KAM2 260756Z 16010KT 18/17 A2995 RMK A01 T01810173  RH  095%=      5-min Rain = 0
KAM2 260757Z 17011KT 18/17 A2995 RMK A01 T01810174  RH  096%=      5-min Rain = 0
KAM2 260758Z 16012KT 18/17 A2995 RMK A01 T01800173  RH  096%=      5-min Rain = 0
KAM2 260759Z 16013KT 18/17 A2995 RMK A01 T01800173  RH  096%=      5-min Rain = 0
KAM2 260800Z 17013KT 18/17 A2995 RMK A01 T01800173  RH  096%=      5-min Rain = 0
KAM2 260801Z 17013KT 18/17 A2995 RMK A01 T01800173  RH  096%=      5-min Rain = 0
KAM2 260802Z 17011KT 18/17 A2995 RMK A01 T01800173  RH  096%=      5-min Rain = 0
KAM2 260803Z 17012KT 18/17 A2995 RMK A01 T01790173  RH  096%=      5-min Rain = 0
KAM2 260804Z 17012KT 18/17 A2995 RMK A01 T01800173  RH  096%=      5-min Rain = 0
KAM2 260805Z 17013KT 18/17 A2995 RMK A01 T01800173  RH  096%=      5-min Rain = 0
KAM2 260806Z 16013KT 18/17 A2995 RMK A01 T01800173  RH  096%=      5-min Rain = 0
KAM2 260807Z 17012KT 18/17 A2995 RMK A01 T01790173  RH  096%=      5-min Rain = 0
KAM2 260808Z 17013KT 18/17 A2995 RMK A01 T01790173  RH  096%=      5-min Rain = 0
KAM2 260809Z 17013KT 18/17 A2995 RMK A01 T01790173  RH  096%=      5-min Rain = 0
KAM2 260810Z 17012KT 18/17 A2995 RMK A01 T01790173  RH  096%=      5-min Rain = 0
KAM2 260811Z 17012KT 18/17 A2995 RMK A01 T01790173  RH  096%=      5-min Rain = 0
KAM2 260812Z 17013KT 18/17 A2995 RMK A01 T01790173  RH  096%=      5-min Rain = 0
KAM2 260813Z 17012KT 18/17 A2995 RMK A01 T01790173  RH  096%=      5-min Rain = 0
KAM2 260814Z 17014KT 18/17 A2995 RMK A01 T01790173  RH  096%=      5-min Rain = 0
KAM2 260815Z 17013KT 18/17 A2995 RMK A01 T01790173  RH  096%=      5-min Rain = 0
KAM2 260816Z 16014G20KT 18/17 A2995 RMK A01 T01790173  RH  096%=      5-min Rain = 0
KAM2 260817Z 16014KT 18/17 A2995 RMK A01 T01800174  RH  096%=      5-min Rain = 0
KAM2 260818Z 16012KT 18/17 A2995 RMK A01 T01800173  RH  096%=      5-min Rain = 0
KAM2 260819Z 17013KT 18/17 A2995 RMK A01 T01800174  RH  096%=      5-min Rain = 0
KAM2 260820Z 17013KT 18/17 A2995 RMK A01 T01800174  RH  096%=      5-min Rain = 0
KAM2 260821Z 17013KT 18/17 A2995 RMK A01 T01800174  RH  096%=      5-min Rain = 0
KAM2 260822Z 17013KT 18/17 A2995 RMK A01 T01800174  RH  096%=      5-min Rain = 0
KAM2 260823Z 17012KT 18/17 A2995 RMK A01 T01800173  RH  096%=      5-min Rain = 0
KAM2 260824Z 17011G16KT 18/17 A2995 RMK A01 T01800173  RH  096%=      5-min Rain = 0
KAM2 260825Z 17010KT 18/17 A2995 RMK A01 T01800174  RH  096%=      5-min Rain = 0
KAM2 260826Z 17012KT 18/17 A2995 RMK A01 T01800173  RH  096%=      5-min Rain = 0
KAM2 260827Z 17012KT 18/17 A2995 RMK A01 T01800174  RH  096%=      5-min Rain = 0
KAM2 260828Z 17012KT 18/17 A2995 RMK A01 T01800173  RH  096%=      5-min Rain = 0
KAM2 260829Z 17013KT 18/17 A2995 RMK A01 T01800174  RH  096%=      5-min Rain = 0
KAM2 260830Z 17011KT 18/17 A2995 RMK A01 T01800173  RH  096%=      5-min Rain = 0
KAM2 260831Z 16010KT 18/17 A2995 RMK A01 T01790173  RH  096%=      5-min Rain = 0
KAM2 260832Z 17012KT 18/17 A2995 RMK A01 T01790173  RH  096%=      5-min Rain = 0
KAM2 260833Z 17012KT 18/17 A2995 RMK A01 T01790173  RH  096%=      5-min Rain = 0
KAM2 260834Z 16013KT 18/17 A2995 RMK A01 T01790173  RH  096%=      5-min Rain = 0
KAM2 260835Z 16013KT 18/17 A2995 RMK A01 T01790173  RH  096%=      5-min Rain = 0
KAM2 260836Z 16012KT 18/17 A2995 RMK A01 T01790173  RH  096%=      5-min Rain = 0
KAM2 260837Z 16014KT 18/17 A2995 RMK A01 T01790173  RH  096%=      5-min Rain = 0
KAM2 260838Z 16013KT 18/17 A2995 RMK A01 T01790173  RH  096%=      5-min Rain = 0
KAM2 260839Z 15012KT 18/17 A2995 RMK A01 T01790173  RH  096%=      5-min Rain = 0
KAM2 260840Z 16013KT 18/17 A2995 RMK A01 T01790173  RH  096%=      5-min Rain = 0
KAM2 260841Z 15014KT 18/17 A2995 RMK A01 T01790173  RH  096%=      5-min Rain = 0
KAM2 260842Z 15014KT 18/17 A2995 RMK A01 T01790173  RH  096%=      5-min Rain = 0
KAM2 260843Z 15015KT 18/17 A2995 RMK A01 T01800173  RH  096%=      5-min Rain = 0
KAM2 260844Z 15014KT 18/17 A2995 RMK A01 T01800173  RH  096%=      5-min Rain = 0
KAM2 260845Z 15014KT 18/17 A2995 RMK A01 T01800173  RH  096%=      5-min Rain = 0
KAM2 260846Z 15013G18KT 18/17 A2995 RMK A01 T01800173  RH  096%=      5-min Rain = 0
KAM2 260847Z 15013KT 18/17 A2995 RMK A01 T01800173  RH  096%=      5-min Rain = 0
KAM2 260848Z 15015KT 18/17 A2995 RMK A01 T01800173  RH  096%=      5-min Rain = 0
KAM2 260849Z 15014KT 18/17 A2995 RMK A01 T01800173  RH  096%=      5-min Rain = 0
KAM2 260850Z 15014KT 18/17 A2995 RMK A01 T01790173  RH  096%=      5-min Rain = 0
KAM2 260851Z 16013KT 18/17 A2995 RMK A01 T01800173  RH  096%=      5-min Rain = 0
KAM2 260852Z 16012G17KT 18/17 A2995 RMK A01 T01800173  RH  096%=      5-min Rain = 0
KAM2 260853Z 16012KT 18/17 A2995 RMK A01 T01790173  RH  096%=      5-min Rain = 0
KAM2 260854Z 16014KT 18/17 A2995 RMK A01 T01790173  RH  096%=      5-min Rain = 0
KAM2 260855Z 17012KT 18/17 A2995 RMK A01 T01790173  RH  096%=      5-min Rain = 0
KAM2 260856Z 17013KT 18/17 A2995 RMK A01 T01790172  RH  096%=      5-min Rain = 0
KAM2 260857Z 17014KT 18/17 A2995 RMK A01 T01790173  RH  096%=      5-min Rain = 0
KAM2 260858Z 16014KT 18/17 A2995 RMK A01 T01790173  RH  096%=      5-min Rain = 0
KAM2 260859Z 17011KT 18/17 A2995 RMK A01 T01780172  RH  096%=      5-min Rain = 0
KAM2 260900Z 17012KT 18/17 A2995 RMK A01 T01780172  RH  096%=      5-min Rain = 0
KAM2 260901Z 17011KT 18/17 A2995 RMK A01 T01780172  RH  096%=      5-min Rain = 0
KAM2 260902Z 16011KT 18/17 A2995 RMK A01 T01780172  RH  096%=      5-min Rain = 0
KAM2 260903Z 16011KT 18/17 A2995 RMK A01 T01780172  RH  096%=      5-min Rain = 0
KAM2 260904Z 16011KT 18/17 A2995 RMK A01 T01780172  RH  097%=      5-min Rain = 0
KAM2 260905Z 16011KT 18/17 A2995 RMK A01 T01780172  RH  097%=      5-min Rain = 0
KAM2 260906Z 16013KT 18/17 A2995 RMK A01 T01780173  RH  097%=      5-min Rain = 0
KAM2 260907Z 16013KT 18/17 A2995 RMK A01 T01780172  RH  097%=      5-min Rain = 0
KAM2 260908Z 16012KT 18/17 A2995 RMK A01 T01780172  RH  097%=      5-min Rain = 0
KAM2 260909Z 16012KT 18/17 A2995 RMK A01 T01780173  RH  097%=      5-min Rain = 0
KAM2 260910Z 16012KT 18/17 A2995 RMK A01 T01780173  RH  097%=      5-min Rain = 0
KAM2 260911Z 16010KT 18/17 A2995 RMK A01 T01770172  RH  097%=      5-min Rain = 0
KAM2 260912Z 16011KT 18/17 A2995 RMK A01 T01770172  RH  097%=      5-min Rain = 0
KAM2 260913Z 16012KT 18/17 A2995 RMK A01 T01770173  RH  097%=      5-min Rain = 0
KAM2 260914Z 16012KT 18/17 A2995 RMK A01 T01770173  RH  097%=      5-min Rain = 0
KAM2 260915Z 17011KT 18/17 A2995 RMK A01 T01770173  RH  097%=      5-min Rain = 0
KAM2 260916Z 16011KT 18/17 A2995 RMK A01 T01770173  RH  097%=      5-min Rain = 0
KAM2 260917Z 16010KT 18/17 A2995 RMK A01 T01780173  RH  097%=      5-min Rain = 0
KAM2 260918Z 16009KT 18/17 A2995 RMK A01 T01770173  RH  097%=      5-min Rain = 0
KAM2 260919Z 16010KT 18/17 A2995 RMK A01 T01770172  RH  097%=      5-min Rain = 0
KAM2 260920Z 16011KT 18/17 A2995 RMK A01 T01770172  RH  097%=      5-min Rain = 0
KAM2 260921Z 16012KT 18/17 A2995 RMK A01 T01770173  RH  097%=      5-min Rain = 0
KAM2 260922Z 16011KT 18/17 A2996 RMK A01 T01770172  RH  097%=      5-min Rain = 0
KAM2 260923Z 16010KT 18/17 A2996 RMK A01 T01770172  RH  097%=      5-min Rain = 0
KAM2 260924Z 16011KT 18/17 A2996 RMK A01 T01770173  RH  097%=      5-min Rain = 0
KAM2 260925Z 17010KT 18/17 A2996 RMK A01 T01770173  RH  097%=      5-min Rain = 0
KAM2 260926Z 17010KT 18/17 A2996 RMK A01 T01770173  RH  097%=      5-min Rain = 0
KAM2 260927Z 17011KT 18/17 A2996 RMK A01 T01760172  RH  097%=      5-min Rain = 0
KAM2 260928Z 17009KT 18/17 A2996 RMK A01 T01760172  RH  097%=      5-min Rain = 0
KAM2 260929Z 17010KT 18/17 A2996 RMK A01 T01760172  RH  097%=      5-min Rain = 0
KAM2 260930Z 17010KT 18/17 A2996 RMK A01 T01760172  RH  097%=      5-min Rain = 0
KAM2 260931Z 17011KT 18/17 A2996 RMK A01 T01760172  RH  098%=      5-min Rain = 0
KAM2 260932Z 17012KT 18/17 A2996 RMK A01 T01770173  RH  098%=      5-min Rain = 0
KAM2 260933Z 17011KT 18/17 A2996 RMK A01 T01770173  RH  098%=      5-min Rain = 0
KAM2 260934Z 17011KT 18/17 A2996 RMK A01 T01770173  RH  097%=      5-min Rain = 0
KAM2 260935Z 17010KT 18/17 A2996 RMK A01 T01770173  RH  097%=      5-min Rain = 0
KAM2 260936Z 16010KT 18/17 A2996 RMK A01 T01770173  RH  097%=      5-min Rain = 0
KAM2 260937Z 16012KT 18/17 A2996 RMK A01 T01770173  RH  097%=      5-min Rain = 0
KAM2 260938Z 16012KT 18/17 A2996 RMK A01 T01770173  RH  098%=      5-min Rain = 0
KAM2 260939Z 16011KT 18/17 A2996 RMK A01 T01770173  RH  098%=      5-min Rain = 0
KAM2 260940Z 16009KT 18/17 A2996 RMK A01 T01760173  RH  098%=      5-min Rain = 0
KAM2 260941Z 16011KT 18/17 A2996 RMK A01 T01760173  RH  098%=      5-min Rain = 0
KAM2 260942Z 16012KT 18/17 A2996 RMK A01 T01760173  RH  098%=      5-min Rain = 0
KAM2 260943Z 16012KT 18/17 A2996 RMK A01 T01760173  RH  098%=      5-min Rain = 0
KAM2 260944Z 16010KT 18/17 A2996 RMK A01 T01760173  RH  098%=      5-min Rain = 0
KAM2 260945Z 16011KT 18/17 A2996 RMK A01 T01760172  RH  098%=      5-min Rain = 0
KAM2 260946Z 16011G16KT 18/17 A2996 RMK A01 T01760173  RH  098%=      5-min Rain = 0
KAM2 260947Z 17012KT 18/17 A2996 RMK A01 T01760172  RH  098%=      5-min Rain = 0
KAM2 260948Z 17011KT 18/17 A2996 RMK A01 T01750172  RH  098%=      5-min Rain = 0
KAM2 260949Z 17009KT 18/17 A2996 RMK A01 T01760173  RH  098%=      5-min Rain = 0
KAM2 260950Z 17011KT 18/17 A2996 RMK A01 T01750172  RH  098%=      5-min Rain = 0
KAM2 260951Z 17011KT 18/17 A2996 RMK A01 T01750172  RH  098%=      5-min Rain = 0
KAM2 260952Z 17010KT 18/17 A2996 RMK A01 T01750172  RH  098%=      5-min Rain = 0
KAM2 260953Z 16011G17KT 18/17 A2996 RMK A01 T01750172  RH  098%=      5-min Rain = 0
KAM2 260954Z 16014KT 18/17 A2996 RMK A01 T01750172  RH  098%=      5-min Rain = 0
KAM2 260955Z 16011KT 18/17 A2996 RMK A01 T01750172  RH  098%=      5-min Rain = 0
KAM2 260956Z 17013KT 18/17 A2996 RMK A01 T01750173  RH  098%=      5-min Rain = 0
KAM2 260957Z 16012KT 18/17 A2996 RMK A01 T01750173  RH  098%=      5-min Rain = 0
KAM2 260958Z 17010KT 18/17 A2996 RMK A01 T01750173  RH  098%=      5-min Rain = 0
KAM2 260959Z 17013KT 18/17 A2996 RMK A01 T01750173  RH  098%=      5-min Rain = 0
KAM2 261000Z 16013KT 18/17 A2996 RMK A01 T01750173  RH  099%=      5-min Rain = 0
KAM2 261001Z 16011KT 18/17 A2996 RMK A01 T01750173  RH  099%=      5-min Rain = 0
KAM2 261002Z 16013KT 18/17 A2996 RMK A01 T01750173  RH  099%=      5-min Rain = 0
KAM2 261003Z 16012KT 18/17 A2996 RMK A01 T01750173  RH  099%=      5-min Rain = 0
KAM2 261004Z 17011KT 18/17 A2996 RMK A01 T01750173  RH  099%=      5-min Rain = 0
KAM2 261005Z 16012KT 18/17 A2996 RMK A01 T01750173  RH  099%=      5-min Rain = 0
KAM2 261006Z 16010KT 18/17 A2996 RMK A01 T01750173  RH  099%=      5-min Rain = 0
KAM2 261007Z 17010KT 18/17 A2996 RMK A01 T01750173  RH  099%=      5-min Rain = 0
KAM2 261008Z 16011KT 18/17 A2996 RMK A01 T01750173  RH  099%=      5-min Rain = 0
KAM2 261009Z 16010KT 18/17 A2996 RMK A01 T01750173  RH  099%=      5-min Rain = 0
KAM2 261010Z 16011KT 18/17 A2996 RMK A01 T01750174  RH  099%=      5-min Rain = 0
KAM2 261011Z 16014KT 18/17 A2996 RMK A01 T01750173  RH  099%=      5-min Rain = 0
KAM2 261012Z 16013KT 18/17 A2996 RMK A01 T01750174  RH  099%=      5-min Rain = 0
KAM2 261013Z 16012KT 18/17 A2996 RMK A01 T01750174  RH  099%=      5-min Rain = 0
KAM2 261014Z 16012G17KT 18/17 A2996 RMK A01 T01750174  RH  099%=      5-min Rain = 0
KAM2 261015Z 16012KT 18/17 A2996 RMK A01 T01750174  RH  099%=      5-min Rain = 0
KAM2 261016Z 17014KT 18/17 A2996 RMK A01 T01750174  RH  099%=      5-min Rain = 0
KAM2 261017Z 17011KT 18/17 A2996 RMK A01 T01750174  RH  099%=      5-min Rain = 0
KAM2 261018Z 16014KT 18/17 A2996 RMK A01 T01750174  RH  099%=      5-min Rain = 0
KAM2 261019Z 16013KT 18/17 A2996 RMK A01 T01760174  RH  099%=      5-min Rain = 0
KAM2 261020Z 17013KT 18/17 A2996 RMK A01 T01760174  RH  099%=      5-min Rain = 0
KAM2 261021Z 16011KT 18/17 A2996 RMK A01 T01760174  RH  099%=      5-min Rain = 0
KAM2 261022Z 17009KT 18/17 A2996 RMK A01 T01750174  RH  099%=      5-min Rain = 0
KAM2 261023Z 17012KT 18/17 A2996 RMK A01 T01750174  RH  099%=      5-min Rain = 0
KAM2 261024Z 17014KT 18/17 A2996 RMK A01 T01760174  RH  099%=      5-min Rain = 0
KAM2 261025Z 16012KT 18/17 A2996 RMK A01 T01750174  RH  099%=      5-min Rain = 0
KAM2 261026Z 16011KT 18/18 A2996 RMK A01 T01760175  RH  099%=      5-min Rain = 0
KAM2 261027Z 16010KT 18/18 A2996 RMK A01 T01760175  RH  099%=      5-min Rain = 0
KAM2 261028Z 16012KT 18/18 A2996 RMK A01 T01760175  RH  099%=      5-min Rain = 0
KAM2 261029Z 17010KT 18/18 A2996 RMK A01 T01760175  RH  099%=      5-min Rain = 0
KAM2 261030Z 17010KT 18/18 A2996 RMK A01 T01760175  RH  099%=      5-min Rain = 0
KAM2 261031Z 17010KT 18/18 A2996 RMK A01 T01760175  RH  099%=      5-min Rain = 0
KAM2 261032Z 17009KT 18/17 A2997 RMK A01 T01760174  RH  099%=      5-min Rain = 0
KAM2 261033Z 17011G16KT 18/18 A2997 RMK A01 T01760175  RH  099%=      5-min Rain = 0
KAM2 261034Z 17011KT 18/17 A2997 RMK A01 T01760174  RH  099%=      5-min Rain = 0
KAM2 261035Z 17011KT 18/17 A2997 RMK A01 T01760174  RH  099%=      5-min Rain = 0
KAM2 261036Z 17010KT 18/18 A2997 RMK A01 T01760175  RH  099%=      5-min Rain = 0
KAM2 261037Z 16010KT 18/17 A2997 RMK A01 T01760174  RH  099%=      5-min Rain = 0
KAM2 261038Z 17009KT 18/18 A2997 RMK A01 T01760175  RH  099%=      5-min Rain = 0
KAM2 261039Z 17009KT 18/18 A2997 RMK A01 T01760175  RH  099%=      5-min Rain = 0
KAM2 261040Z 17009KT 18/18 A2997 RMK A01 T01760175  RH  099%=      5-min Rain = 0
KAM2 261041Z 17007KT 18/18 A2997 RMK A01 T01760175  RH  099%=      5-min Rain = 0
KAM2 261042Z 17009KT 18/18 A2997 RMK A01 T01760175  RH  099%=      5-min Rain = 0
KAM2 261043Z 16009KT 18/18 A2997 RMK A01 T01760175  RH  099%=      5-min Rain = 0
KAM2 261044Z 17008G13KT 18/18 A2997 RMK A01 T01760175  RH  099%=      5-min Rain = 0
KAM2 261045Z 17009KT 18/17 A2997 RMK A01 T01760174  RH  099%=      5-min Rain = 0
KAM2 261046Z 17008KT 18/17 A2997 RMK A01 T01760174  RH  099%=      5-min Rain = 0
KAM2 261047Z 17005KT 18/17 A2997 RMK A01 T01760174  RH  099%=      5-min Rain = 0
KAM2 261048Z 17007KT 18/17 A2997 RMK A01 T01760174  RH  099%=      5-min Rain = 0
KAM2 261049Z 17006KT 18/17 A2997 RMK A01 T01760174  RH  099%=      5-min Rain = 0
KAM2 261050Z 17006KT 18/18 A2997 RMK A01 T01760175  RH  099%=      5-min Rain = 0
KAM2 261051Z 17006KT 18/17 A2998 RMK A01 T01760174  RH  099%=      5-min Rain = 0
KAM2 261052Z 17006KT 18/17 A2998 RMK A01 T01760174  RH  099%=      5-min Rain = 0
KAM2 261053Z 17009KT 18/17 A2998 RMK A01 T01760174  RH  099%=      5-min Rain = 0
KAM2 261054Z 18008KT 18/17 A2998 RMK A01 T01760174  RH  099%=      5-min Rain = 0
KAM2 261055Z 18008KT 18/17 A2998 RMK A01 T01760174  RH  099%=      5-min Rain = 0
KAM2 261056Z 18006KT 18/17 A2998 RMK A01 T01760174  RH  099%=      5-min Rain = 0
KAM2 261057Z 17004KT 18/17 A2998 RMK A01 T01760174  RH  099%=      5-min Rain = 0
KAM2 261058Z 18003KT 18/17 A2998 RMK A01 T01760174  RH  099%=      5-min Rain = 0
KAM2 261059Z 17004KT 18/17 A2998 RMK A01 T01760174  RH  099%=      5-min Rain = 0
KAM2 261100Z 17005KT 18/17 A2998 RMK A01 T01760174  RH  099%=      5-min Rain = 0
KAM2 261101Z 18006KT 18/17 A2998 RMK A01 T01760174  RH  099%=      5-min Rain = 0
KAM2 261102Z 17005KT 18/18 A2998 RMK A01 T01760175  RH  099%=      5-min Rain = 0
KAM2 261103Z 17003KT 18/18 A2998 RMK A01 T01760175  RH  099%=      5-min Rain = 0
KAM2 261104Z 17002KT 18/18 A2998 RMK A01 T01760175  RH  099%=      5-min Rain = 0
KAM2 261105Z 16003KT 18/18 A2999 RMK A01 T01760175  RH  099%=      5-min Rain = 0
KAM2 261106Z 18003KT 18/18 A2999 RMK A01 T01770175  RH  099%=      5-min Rain = 0
KAM2 261107Z 18004KT 18/18 A2999 RMK A01 T01770175  RH  099%=      5-min Rain = 0
KAM2 261108Z 19006KT 18/18 A2999 RMK A01 T01760175  RH  099%=      5-min Rain = 0
KAM2 261109Z 18005KT 18/18 A2999 RMK A01 T01770175  RH  099%=      5-min Rain = 0
KAM2 261110Z 19004KT 18/18 A2999 RMK A01 T01760175  RH  099%=      5-min Rain = 0
KAM2 261111Z 18002KT 18/18 A2999 RMK A01 T01760175  RH  099%=      5-min Rain = 0
KAM2 261112Z 17002KT 18/18 A2999 RMK A01 T01760175  RH  099%=      5-min Rain = 0
KAM2 261113Z 17005KT 18/18 A2999 RMK A01 T01760175  RH  099%=      5-min Rain = 0
KAM2 261114Z 16004KT 18/18 A2999 RMK A01 T01760175  RH  099%=      5-min Rain = 0
KAM2 261115Z 16004KT 18/18 A2999 RMK A01 T01760175  RH  099%=      5-min Rain = 0
KAM2 261116Z 17004KT 18/18 A2999 RMK A01 T01760175  RH  099%=      5-min Rain = 0
KAM2 261117Z 16004KT 18/18 A2999 RMK A01 T01760175  RH  099%=      5-min Rain = 0
KAM2 261118Z 15004KT 18/18 A2999 RMK A01 T01760175  RH  099%=      5-min Rain = 0
KAM2 261119Z 16004KT 18/18 A2999 RMK A01 T01760175  RH  099%=      5-min Rain = 0
KAM2 261120Z 15003KT 18/18 A2999 RMK A01 T01770175  RH  099%=      5-min Rain = 0
KAM2 261121Z 16005KT 18/18 A2999 RMK A01 T01760175  RH  099%=      5-min Rain = 0
KAM2 261122Z 16004KT 18/18 A2999 RMK A01 T01760175  RH  099%=      5-min Rain = 0
KAM2 261123Z 16007KT 18/18 A2999 RMK A01 T01760175  RH  099%=      5-min Rain = 0
KAM2 261124Z 17008KT 18/18 A2999 RMK A01 T01770175  RH  099%=      5-min Rain = 0
KAM2 261125Z 17007KT 18/18 A2999 RMK A01 T01770175  RH  099%=      5-min Rain = 0
KAM2 261126Z 16006KT 18/18 A2999 RMK A01 T01770175  RH  099%=      5-min Rain = 0
KAM2 261127Z 16006KT 18/18 A2999 RMK A01 T01770175  RH  099%=      5-min Rain = 0
KAM2 261128Z 17006KT 18/18 A2999 RMK A01 T01770175  RH  099%=      5-min Rain = 0
KAM2 261129Z 16005KT 18/18 A2999 RMK A01 T01770175  RH  099%=      5-min Rain = 0
KAM2 261130Z 16007KT 18/18 A30 RMK A01 T01770175  RH  099%=      5-min Rain = 0
KAM2 261131Z 16008KT 18/18 A2999 RMK A01 T01770175  RH  099%=      5-min Rain = 0
KAM2 261132Z 16007KT 18/18 A30 RMK A01 T01770175  RH  099%=      5-min Rain = 0
KAM2 261133Z 15006KT 18/18 A30 RMK A01 T01770175  RH  099%=      5-min Rain = 0
KAM2 261134Z 15006KT 18/18 A30 RMK A01 T01770175  RH  099%=      5-min Rain = 0
KAM2 261135Z 16005KT 18/18 A30 RMK A01 T01770175  RH  099%=      5-min Rain = 0
KAM2 261136Z 15005KT 18/18 A30 RMK A01 T01770175  RH  099%=      5-min Rain = 0
KAM2 261137Z 15005KT 18/18 A30 RMK A01 T01770175  RH  099%=      5-min Rain = 0
KAM2 261138Z 15005KT 18/18 A30 RMK A01 T01770175  RH  099%=      5-min Rain = 0
KAM2 261139Z 16004KT 18/18 A30 RMK A01 T01760175  RH  099%=      5-min Rain = 0
KAM2 261140Z 15004KT 18/18 A30 RMK A01 T01770175  RH  099%=      5-min Rain = 0
KAM2 261141Z 16006KT 18/18 A30 RMK A01 T01760175  RH  099%=      5-min Rain = 0
KAM2 261142Z 16006KT 18/18 A30 RMK A01 T01760175  RH  099%=      5-min Rain = 0
KAM2 261143Z 15004KT 18/18 A30 RMK A01 T01760175  RH  099%=      5-min Rain = 0
KAM2 261144Z 15004KT 18/18 A30 RMK A01 T01770175  RH  099%=      5-min Rain = 0
KAM2 261145Z 15005KT 18/18 A30 RMK A01 T01760175  RH  099%=      5-min Rain = 0
KAM2 261146Z 15006KT 18/18 A30 RMK A01 T01760175  RH  099%=      5-min Rain = 0
KAM2 261147Z 15005KT 18/18 A30 RMK A01 T01760175  RH  099%=      5-min Rain = 0
KAM2 261148Z 15005KT 18/18 A30 RMK A01 T01760175  RH  099%=      5-min Rain = 0
KAM2 261149Z 16005KT 18/18 A30 RMK A01 T01770175  RH  099%=      5-min Rain = 0
KAM2 261150Z 16004KT 18/18 A30 RMK A01 T01760175  RH  099%=      5-min Rain = 0
KAM2 261151Z 16003KT 18/18 A30 RMK A01 T01760175  RH  099%=      5-min Rain = 0
KAM2 261152Z 15004KT 18/18 A30 RMK A01 T01770176  RH  099%=      5-min Rain = 0
KAM2 261153Z 16005KT 18/18 A30 RMK A01 T01760175  RH  099%=      5-min Rain = 0
KAM2 261154Z 15005KT 18/18 A30 RMK A01 T01770176  RH  099%=      5-min Rain = 0
KAM2 261155Z 15005KT 18/18 A30 RMK A01 T01760175  RH  099%=      5-min Rain = 0
KAM2 261156Z 16005KT 18/18 A30 RMK A01 T01770175  RH  099%=      5-min Rain = 0
KAM2 261157Z 16005KT 18/18 A30 RMK A01 T01760175  RH  099%=      5-min Rain = 0
KAM2 261158Z 16005KT 18/18 A30 RMK A01 T01760175  RH  099%=      5-min Rain = 0
KAM2 261159Z 16007KT 18/18 A30 RMK A01 T01760175  RH  099%=      5-min Rain = 0
KAM2 261200Z 16006KT 18/18 A30 RMK A01 T01770176  RH  099%=      5-min Rain = 0
KAM2 261201Z 15006KT 18/18 A30 RMK A01 T01770176  RH  099%=      5-min Rain = 0
KAM2 261202Z 15007KT 18/18 A30 RMK A01 T01760176  RH  099%=      5-min Rain = 0
KAM2 261203Z 16007KT 18/18 A30 RMK A01 T01760176  RH  099%=      5-min Rain = 0
KAM2 261204Z 16007KT 18/18 A30 RMK A01 T01760176  RH  099%=      5-min Rain = 0
KAM2 261205Z 16007KT 18/18 A30 RMK A01 T01760176  RH  099%=      5-min Rain = 0
KAM2 261206Z 15007KT 18/18 A30 RMK A01 T01760176  RH  099%=      5-min Rain = 0
KAM2 261207Z 15007KT 18/18 A30 RMK A01 T01770176  RH  099%=      5-min Rain = 0
KAM2 261208Z 15008KT 18/18 A30 RMK A01 T01770176  RH  099%=      5-min Rain = 0
KAM2 261209Z 16007KT 18/18 A30 RMK A01 T01770176  RH  100%=      5-min Rain = 0
KAM2 261210Z 15008KT 18/18 A30 RMK A01 T01770176  RH  100%=      5-min Rain = 0
KAM2 261211Z 16008KT 18/18 A30 RMK A01 T01770176  RH  100%=      5-min Rain = 0
KAM2 261212Z 15008KT 18/18 A30 RMK A01 T01770176  RH  100%=      5-min Rain = 0
KAM2 261213Z 16007KT 18/18 A30 RMK A01 T01770176  RH  100%=      5-min Rain = 0
KAM2 261214Z 16008KT 18/18 A30 RMK A01 T01770177  RH  100%=      5-min Rain = 0
KAM2 261215Z 16008KT 18/18 A30 RMK A01 T01770177  RH  100%=      5-min Rain = 0
KAM2 261216Z 16007KT 18/18 A30 RMK A01 T01770177  RH  100%=      5-min Rain = 0
KAM2 261217Z 16007KT 18/18 A30 RMK A01 T01780177  RH  100%=      5-min Rain = 0
KAM2 261218Z 16008KT 18/18 A30 RMK A01 T01780177  RH  100%=      5-min Rain = 0
KAM2 261219Z 16009KT 18/18 A30 RMK A01 T01780177  RH  100%=      5-min Rain = 0
KAM2 261220Z 17009KT 18/18 A30 RMK A01 T01780177  RH  100%=      5-min Rain = 0
KAM2 261221Z 16009KT 18/18 A30 RMK A01 T01780177  RH  100%=      5-min Rain = 0
KAM2 261222Z 16009KT 18/18 A30 RMK A01 T01780177  RH  100%=      5-min Rain = 0
KAM2 261223Z 16008KT 18/18 A30 RMK A01 T01780177  RH  099%=      5-min Rain = 0
KAM2 261224Z 16006KT 18/18 A30 RMK A01 T01780177  RH  099%=      5-min Rain = 0
KAM2 261225Z 16008KT 18/18 A30 RMK A01 T01780177  RH  099%=      5-min Rain = 0
KAM2 261226Z 16007KT 18/18 A30 RMK A01 T01780177  RH  099%=      5-min Rain = 0
KAM2 261227Z 16007KT 18/18 A30 RMK A01 T01780177  RH  099%=      5-min Rain = 0
KAM2 261228Z 16008KT 18/18 A30 RMK A01 T01780178  RH  099%=      5-min Rain = 0
KAM2 261229Z 16008KT 18/18 A30 RMK A01 T01780177  RH  099%=      5-min Rain = 0
KAM2 261230Z 16008KT 18/18 A30 RMK A01 T01780178  RH  099%=      5-min Rain = 0
KAM2 261231Z 16007KT 18/18 A30 RMK A01 T01780177  RH  099%=      5-min Rain = 0
KAM2 261232Z 16006KT 18/18 A30 RMK A01 T01790178  RH  099%=      5-min Rain = 0
KAM2 261233Z 16005KT 18/18 A30 RMK A01 T01790178  RH  099%=      5-min Rain = 0
KAM2 261234Z 16006KT 18/18 A30 RMK A01 T01790178  RH  099%=      5-min Rain = 0
KAM2 261235Z 16007KT 18/18 A30 RMK A01 T01790178  RH  099%=      5-min Rain = 0
KAM2 261236Z 16006KT 18/18 A30 RMK A01 T01790178  RH  099%=      5-min Rain = 0
KAM2 261237Z 16005KT 18/18 A30 RMK A01 T01790178  RH  099%=      5-min Rain = 0
KAM2 261238Z 15006KT 18/18 A30 RMK A01 T01800179  RH  099%=      5-min Rain = 0
KAM2 261239Z 15005KT 18/18 A30 RMK A01 T01800179  RH  099%=      5-min Rain = 0
KAM2 261240Z 15005KT 18/18 A30 RMK A01 T01800179  RH  099%=      5-min Rain = 0
KAM2 261241Z 16005KT 18/18 A30 RMK A01 T01800179  RH  099%=      5-min Rain = 0
KAM2 261242Z 16005KT 18/18 A30 RMK A01 T01800179  RH  099%=      5-min Rain = 0
KAM2 261243Z 16004KT 18/18 A30 RMK A01 T01810179  RH  099%=      5-min Rain = 0
KAM2 261244Z 16005KT 18/18 A30 RMK A01 T01810179  RH  099%=      5-min Rain = 0
KAM2 261245Z 15005KT 18/18 A30 RMK A01 T01810179  RH  099%=      5-min Rain = 0
KAM2 261246Z 14005KT 18/18 A30 RMK A01 T01810180  RH  099%=      5-min Rain = 0
KAM2 261247Z 15004KT 18/18 A30 RMK A01 T01820180  RH  099%=      5-min Rain = 0
KAM2 261248Z 15007KT 18/18 A30 RMK A01 T01820180  RH  099%=      5-min Rain = 0
KAM2 261249Z 14006KT 18/18 A30 RMK A01 T01820180  RH  099%=      5-min Rain = 0
KAM2 261250Z 16005KT 18/18 A30 RMK A01 T01820180  RH  099%=      5-min Rain = 0
KAM2 261251Z 15008KT 18/18 A30 RMK A01 T01820180  RH  098%=      5-min Rain = 0
KAM2 261252Z 16006KT 18/18 A30 RMK A01 T01830180  RH  098%=      5-min Rain = 0
KAM2 261253Z 15007KT 18/18 A30 RMK A01 T01830180  RH  098%=      5-min Rain = 0
KAM2 261254Z 16006KT 18/18 A30 RMK A01 T01830180  RH  098%=      5-min Rain = 0
KAM2 261255Z 16008KT 18/18 A30 RMK A01 T01840180  RH  098%=      5-min Rain = 0
KAM2 261256Z 16007KT 18/18 A30 RMK A01 T01840180  RH  098%=      5-min Rain = 0
KAM2 261257Z 16007KT 18/18 A30 RMK A01 T01840181  RH  098%=      5-min Rain = 0
KAM2 261258Z 15006KT 18/18 A30 RMK A01 T01840181  RH  098%=      5-min Rain = 0
KAM2 261259Z 16006KT 19/18 A30 RMK A01 T01850181  RH  097%=      5-min Rain = 0
KAM2 261300Z 16006KT 19/18 A30 RMK A01 T01850181  RH  097%=      5-min Rain = 0
KAM2 261301Z 16006KT 19/18 A30 RMK A01 T01860182  RH  097%=      5-min Rain = 0
KAM2 261302Z 15009KT 19/18 A30 RMK A01 T01860182  RH  097%=      5-min Rain = 0
KAM2 261303Z 16009KT 19/18 A30 RMK A01 T01860181  RH  097%=      5-min Rain = 0
KAM2 261304Z 16007KT 19/18 A30 RMK A01 T01860181  RH  097%=      5-min Rain = 0
KAM2 261305Z 16007KT 19/18 A30 RMK A01 T01870182  RH  097%=      5-min Rain = 0
KAM2 261306Z 17008KT 19/18 A30 RMK A01 T01870182  RH  097%=      5-min Rain = 0
KAM2 261307Z 16008KT 19/18 A30 RMK A01 T01870182  RH  096%=      5-min Rain = 0
KAM2 261308Z 16007KT 19/18 A30 RMK A01 T01880182  RH  096%=      5-min Rain = 0
KAM2 261309Z 16008KT 19/18 A30 RMK A01 T01880182  RH  096%=      5-min Rain = 0
KAM2 261310Z 16009KT 19/18 A30 RMK A01 T01880182  RH  096%=      5-min Rain = 0
KAM2 261311Z 16008KT 19/18 A30 RMK A01 T01890182  RH  096%=      5-min Rain = 0
KAM2 261312Z 16008KT 19/18 A30 RMK A01 T01890182  RH  096%=      5-min Rain = 0
KAM2 261313Z 16008KT 19/18 A30 RMK A01 T01890182  RH  096%=      5-min Rain = 0
KAM2 261314Z 16008KT 19/18 A30 RMK A01 T01890182  RH  096%=      5-min Rain = 0
KAM2 261315Z 16008KT 19/18 A30 RMK A01 T01900182  RH  095%=      5-min Rain = 0
KAM2 261316Z 17010KT 19/18 A30 RMK A01 T01900182  RH  095%=      5-min Rain = 0
KAM2 261317Z 17010KT 19/18 A30 RMK A01 T01900182  RH  095%=      5-min Rain = 0
KAM2 261318Z 17010KT 19/18 A30 RMK A01 T01900182  RH  095%=      5-min Rain = 0
KAM2 261319Z 16008KT 19/18 A30 RMK A01 T01910182  RH  095%=      5-min Rain = 0
KAM2 261320Z 16009KT 19/18 A30 RMK A01 T01910182  RH  095%=      5-min Rain = 0
KAM2 261321Z 16008KT 19/18 A30 RMK A01 T01910182  RH  095%=      5-min Rain = 0
KAM2 261322Z 16010KT 19/18 A30 RMK A01 T01910182  RH  094%=      5-min Rain = 0
KAM2 261323Z 15011KT 19/18 A30 RMK A01 T01910182  RH  094%=      5-min Rain = 0
KAM2 261324Z 17007KT 19/18 A30 RMK A01 T01920182  RH  094%=      5-min Rain = 0
KAM2 261325Z 16009KT 19/18 A30 RMK A01 T01920183  RH  094%=      5-min Rain = 0
KAM2 261326Z 16010KT 19/18 A30 RMK A01 T01920182  RH  094%=      5-min Rain = 0
KAM2 261327Z 16009KT 19/18 A30 RMK A01 T01920183  RH  094%=      5-min Rain = 0
KAM2 261328Z 16009KT 19/18 A30 RMK A01 T01930183  RH  094%=      5-min Rain = 0
KAM2 261329Z 16009KT 19/18 A30 RMK A01 T01930183  RH  094%=      5-min Rain = 0
KAM2 261330Z 16011KT 19/18 A30 RMK A01 T01930183  RH  094%=      5-min Rain = 0
KAM2 261331Z 17011KT 19/18 A30 RMK A01 T01930183  RH  094%=      5-min Rain = 0
KAM2 261332Z 16010KT 19/18 A30 RMK A01 T01930183  RH  094%=      5-min Rain = 0
KAM2 261333Z 16010KT 19/18 A30 RMK A01 T01940183  RH  094%=      5-min Rain = 0
KAM2 261334Z 15010KT 19/18 A30 RMK A01 T01940183  RH  094%=      5-min Rain = 0
KAM2 261335Z 17009KT 19/18 A30 RMK A01 T01940184  RH  094%=      5-min Rain = 0
KAM2 261336Z 16009KT 19/18 A30 RMK A01 T01940184  RH  094%=      5-min Rain = 0
KAM2 261337Z 17009KT 19/18 A30 RMK A01 T01940184  RH  094%=      5-min Rain = 0
KAM2 261338Z 16009KT 19/18 A30 RMK A01 T01940184  RH  094%=      5-min Rain = 0
KAM2 261339Z 16008KT 19/18 A3001 RMK A01 T01940184  RH  094%=      5-min Rain = 0
KAM2 261340Z 16007KT 20/19 A3001 RMK A01 T01950185  RH  094%=      5-min Rain = 0
KAM2 261341Z 16007KT 20/19 A3001 RMK A01 T01950185  RH  094%=      5-min Rain = 0
KAM2 261342Z 16009KT 20/19 A3001 RMK A01 T01950185  RH  094%=      5-min Rain = 0
KAM2 261343Z 16009KT 20/18 A3001 RMK A01 T01950184  RH  093%=      5-min Rain = 0
KAM2 261344Z 16009KT 20/18 A3001 RMK A01 T01950184  RH  093%=      5-min Rain = 0
KAM2 261345Z 16010KT 20/19 A3001 RMK A01 T01960185  RH  093%=      5-min Rain = 0
KAM2 261346Z 16007KT 20/18 A3001 RMK A01 T01960184  RH  093%=      5-min Rain = 0
KAM2 261347Z 17009KT 20/19 A3001 RMK A01 T01960185  RH  093%=      5-min Rain = 0
KAM2 261348Z 17011KT 20/18 A3001 RMK A01 T01960184  RH  093%=      5-min Rain = 0
KAM2 261349Z 17010KT 20/18 A3001 RMK A01 T01970184  RH  093%=      5-min Rain = 0
KAM2 261350Z 17010KT 20/18 A3001 RMK A01 T01960184  RH  093%=      5-min Rain = 0
KAM2 261351Z 17010KT 20/19 A3001 RMK A01 T01970185  RH  093%=      5-min Rain = 0
KAM2 261352Z 16010KT 20/19 A3001 RMK A01 T01970185  RH  093%=      5-min Rain = 0
KAM2 261353Z 16009KT 20/19 A3001 RMK A01 T01970185  RH  093%=      5-min Rain = 0
KAM2 261354Z 17009G14KT 20/19 A3001 RMK A01 T01970185  RH  093%=      5-min Rain = 0
KAM2 261355Z 17012KT 20/19 A3001 RMK A01 T01970185  RH  093%=      5-min Rain = 0
KAM2 261356Z 16010KT 20/19 A3001 RMK A01 T01980185  RH  092%=      5-min Rain = 0
KAM2 261357Z 17012KT 20/19 A3001 RMK A01 T01980186  RH  093%=      5-min Rain = 0
KAM2 261358Z 17011KT 20/19 A3001 RMK A01 T01980185  RH  092%=      5-min Rain = 0
KAM2 261359Z 17013KT 20/19 A3001 RMK A01 T01990186  RH  092%=      5-min Rain = 0
KAM2 261400Z 17011KT 20/19 A3002 RMK A01 T01980185  RH  092%=      5-min Rain = 0
KAM2 261401Z 17011KT 20/19 A3002 RMK A01 T01980185  RH  092%=      5-min Rain = 0
KAM2 261402Z 16013KT 20/19 A3002 RMK A01 T01990185  RH  092%=      5-min Rain = 0
KAM2 261403Z 17014KT 20/19 A3002 RMK A01 T01990185  RH  091%=      5-min Rain = 0
KAM2 261404Z 16012KT 20/19 A3002 RMK A01 T01990185  RH  091%=      5-min Rain = 0
KAM2 261405Z 17010KT 20/19 A3002 RMK A01 T01990186  RH  092%=      5-min Rain = 0
KAM2 261406Z 17010KT 20/19 A3001 RMK A01 T01990186  RH  092%=      5-min Rain = 0
KAM2 261407Z 17009KT 20/19 A3001 RMK A01 T02000186  RH  092%=      5-min Rain = 0
KAM2 261408Z 16012KT 20/19 A3001 RMK A01 T02000186  RH  092%=      5-min Rain = 0
KAM2 261409Z 16010KT 20/19 A3001 RMK A01 T02000186  RH  092%=      5-min Rain = 0
KAM2 261410Z 17009KT 20/19 A3001 RMK A01 T02000186  RH  092%=      5-min Rain = 0
KAM2 261411Z 17009KT 20/19 A3001 RMK A01 T02000186  RH  091%=      5-min Rain = 0
KAM2 261412Z 16010G15KT 20/19 A3001 RMK A01 T02000186  RH  092%=      5-min Rain = 0
KAM2 261413Z 16013KT 20/19 A3001 RMK A01 T02010186  RH  091%=      5-min Rain = 0
KAM2 261414Z 17012KT 20/19 A3001 RMK A01 T02010185  RH  091%=      5-min Rain = 0
KAM2 261415Z 16010KT 20/19 A3001 RMK A01 T02010186  RH  091%=      5-min Rain = 0
KAM2 261416Z 16013KT 20/19 A3001 RMK A01 T02010187  RH  091%=      5-min Rain = 0
KAM2 261417Z 16012KT 20/19 A3001 RMK A01 T02010185  RH  091%=      5-min Rain = 0
KAM2 261418Z 17012KT 20/19 A3001 RMK A01 T02020186  RH  091%=      5-min Rain = 0
KAM2 261419Z 17012KT 20/19 A3001 RMK A01 T02020186  RH  091%=      5-min Rain = 0
KAM2 261420Z 16013KT 20/19 A3001 RMK A01 T02020186  RH  091%=      5-min Rain = 0
KAM2 261421Z 16011KT 20/19 A3001 RMK A01 T02020186  RH  091%=      5-min Rain = 0
KAM2 261422Z 16010G15KT 20/19 A3001 RMK A01 T02030187  RH  090%=      5-min Rain = 0
KAM2 261423Z 16009KT 20/19 A3001 RMK A01 T02030188  RH  091%=      5-min Rain = 0
KAM2 261424Z 16009KT 20/19 A3001 RMK A01 T02030188  RH  091%=      5-min Rain = 0
KAM2 261425Z 17011KT 20/19 A3001 RMK A01 T02030188  RH  091%=      5-min Rain = 0
KAM2 261426Z 16012KT 20/19 A3001 RMK A01 T02040188  RH  090%=      5-min Rain = 0
KAM2 261427Z 16013KT 20/19 A3001 RMK A01 T02040188  RH  090%=      5-min Rain = 0
KAM2 261428Z 16013KT 20/19 A3001 RMK A01 T02040187  RH  090%=      5-min Rain = 0
KAM2 261429Z 16011KT 20/19 A3001 RMK A01 T02040186  RH  089%=      5-min Rain = 0
KAM2 261430Z 17011KT 21/19 A3001 RMK A01 T02050187  RH  090%=      5-min Rain = 0
KAM2 261431Z 16011KT 21/19 A3001 RMK A01 T02050189  RH  090%=      5-min Rain = 0
KAM2 261432Z 17014KT 21/19 A3001 RMK A01 T02050188  RH  090%=      5-min Rain = 0
KAM2 261433Z 16013KT 21/19 A3001 RMK A01 T02050188  RH  090%=      5-min Rain = 0
KAM2 261434Z 16014KT 21/19 A3001 RMK A01 T02050187  RH  089%=      5-min Rain = 0
KAM2 261435Z 15012KT 21/19 A3001 RMK A01 T02050188  RH  090%=      5-min Rain = 0
KAM2 261436Z 16012KT 21/19 A3001 RMK A01 T02050188  RH  090%=      5-min Rain = 0
KAM2 261437Z 17016KT 21/19 A3001 RMK A01 T02060187  RH  089%=      5-min Rain = 0
KAM2 261438Z 16014KT 21/19 A3002 RMK A01 T02050187  RH  089%=      5-min Rain = 0
KAM2 261439Z 17012KT 21/19 A3002 RMK A01 T02050187  RH  089%=      5-min Rain = 0
KAM2 261440Z 17014KT 21/19 A3002 RMK A01 T02050188  RH  090%=      5-min Rain = 0
KAM2 261441Z 17014KT 21/19 A3002 RMK A01 T02050187  RH  090%=      5-min Rain = 0
KAM2 261442Z 17012KT 20/19 A3002 RMK A01 T02040187  RH  090%=      5-min Rain = 0
KAM2 261443Z 17011KT 20/19 A3002 RMK A01 T02040188  RH  090%=      5-min Rain = 0
KAM2 261444Z 17012KT 20/19 A3002 RMK A01 T02040187  RH  090%=      5-min Rain = 0
KAM2 261445Z 16011KT 20/19 A3002 RMK A01 T02040188  RH  090%=      5-min Rain = 0
KAM2 261446Z 17011KT 20/19 A3002 RMK A01 T02040188  RH  091%=      5-min Rain = 0
KAM2 261447Z 17014KT 20/19 A3002 RMK A01 T02040188  RH  090%=      5-min Rain = 0
KAM2 261448Z 17016KT 20/19 A3002 RMK A01 T02040187  RH  090%=      5-min Rain = 0
KAM2 261449Z 17014KT 20/19 A3002 RMK A01 T02030186  RH  090%=      5-min Rain = 0
KAM2 261450Z 17011KT 20/19 A3002 RMK A01 T02030187  RH  090%=      5-min Rain = 0
KAM2 261451Z 18012KT 20/19 A3002 RMK A01 T02030187  RH  090%=      5-min Rain = 0
KAM2 261452Z 17011KT 20/19 A3002 RMK A01 T02040188  RH  090%=      5-min Rain = 0
KAM2 261453Z 17011KT 20/19 A3002 RMK A01 T02040188  RH  090%=      5-min Rain = 0
KAM2 261454Z 17012KT 20/19 A3002 RMK A01 T02040188  RH  090%=      5-min Rain = 0
KAM2 261455Z 17011KT 20/19 A3002 RMK A01 T02040188  RH  091%=      5-min Rain = 0
KAM2 261456Z 17012G17KT 21/19 A3002 RMK A01 T02050188  RH  090%=      5-min Rain = 0
KAM2 261457Z 17014KT 21/19 A3002 RMK A01 T02050188  RH  090%=      5-min Rain = 0
KAM2 261458Z 17013KT 21/19 A3002 RMK A01 T02050188  RH  090%=      5-min Rain = 0
KAM2 261459Z 17014G19KT 21/19 A3002 RMK A01 T02050188  RH  090%=      5-min Rain = 0
KAM2 261500Z 17014KT 21/19 A3002 RMK A01 T02050187  RH  090%=      5-min Rain = 0
KAM2 261501Z 17016KT 21/19 A3002 RMK A01 T02050187  RH  089%=      5-min Rain = 0
KAM2 261502Z 16017KT 21/19 A3002 RMK A01 T02050186  RH  089%=      5-min Rain = 0
KAM2 261503Z 17018KT 21/19 A3002 RMK A01 T02050187  RH  089%=      5-min Rain = 0
KAM2 261504Z 17017KT 21/19 A3002 RMK A01 T02060186  RH  089%=      5-min Rain = 0
KAM2 261505Z 17014KT 21/19 A3002 RMK A01 T02060187  RH  089%=      5-min Rain = 0
KAM2 261506Z 16011KT 21/19 A3002 RMK A01 T02060188  RH  089%=      5-min Rain = 0
KAM2 261507Z 16013KT 21/19 A3002 RMK A01 T02060189  RH  090%=      5-min Rain = 0
KAM2 261508Z 16015KT 21/19 A3001 RMK A01 T02070188  RH  089%=      5-min Rain = 0
KAM2 261509Z 16014G19KT 21/19 A3001 RMK A01 T02070188  RH  089%=      5-min Rain = 0
KAM2 261510Z 16016KT 21/19 A3001 RMK A01 T02070187  RH  088%=      5-min Rain = 0
KAM2 261511Z 16014KT 21/19 A3001 RMK A01 T02070187  RH  088%=      5-min Rain = 0
KAM2 261512Z 16011KT 21/19 A3001 RMK A01 T02070188  RH  089%=      5-min Rain = 0
KAM2 261513Z 16012KT 21/19 A3001 RMK A01 T02070188  RH  089%=      5-min Rain = 0
KAM2 261514Z 16009KT 21/19 A3001 RMK A01 T02080189  RH  089%=      5-min Rain = 0
KAM2 261515Z 16014KT 21/19 A3001 RMK A01 T02090189  RH  088%=      5-min Rain = 0
KAM2 261516Z 16014KT 21/19 A3001 RMK A01 T02100188  RH  088%=      5-min Rain = 0
KAM2 261517Z 16014KT 21/19 A3001 RMK A01 T02100188  RH  087%=      5-min Rain = 0
KAM2 261518Z 16015KT 21/19 A3001 RMK A01 T02100188  RH  087%=      5-min Rain = 0
KAM2 261519Z 16013KT 21/19 A3001 RMK A01 T02110189  RH  087%=      5-min Rain = 0
KAM2 261520Z 16011KT 21/19 A3001 RMK A01 T02120190  RH  087%=      5-min Rain = 0
KAM2 261521Z 16014KT 21/19 A3001 RMK A01 T02130190  RH  087%=      5-min Rain = 0
KAM2 261522Z 17014KT 21/19 A3001 RMK A01 T02140190  RH  086%=      5-min Rain = 0
KAM2 261523Z 16015KT 21/19 A3001 RMK A01 T02140190  RH  086%=      5-min Rain = 0
KAM2 261524Z 16014KT 21/19 A3001 RMK A01 T02130189  RH  086%=      5-min Rain = 0
KAM2 261525Z 15015KT 21/19 A3001 RMK A01 T02130189  RH  086%=      5-min Rain = 0
KAM2 261526Z 16014KT 21/19 A30 RMK A01 T02130189  RH  086%=      5-min Rain = 0
KAM2 261527Z 17016KT 21/19 A30 RMK A01 T02130189  RH  086%=      5-min Rain = 0
KAM2 261528Z 16013KT 21/19 A30 RMK A01 T02140190  RH  086%=      5-min Rain = 0
KAM2 261529Z 15013G18KT 22/19 A3001 RMK A01 T02150191  RH  087%=      5-min Rain = 0
KAM2 261530Z 16016KT 22/19 A3001 RMK A01 T02160190  RH  086%=      5-min Rain = 0
KAM2 261531Z 15016KT 22/19 A3001 RMK A01 T02160190  RH  085%=      5-min Rain = 0
KAM2 261532Z 16016KT 22/19 A3001 RMK A01 T02160189  RH  085%=      5-min Rain = 0
KAM2 261533Z 16015KT 22/19 A3001 RMK A01 T02160189  RH  084%=      5-min Rain = 0
KAM2 261534Z 15016KT 22/19 A3001 RMK A01 T02160190  RH  085%=      5-min Rain = 0
KAM2 261535Z 15013G19KT 22/19 A30 RMK A01 T02170190  RH  085%=      5-min Rain = 0
KAM2 261536Z 15016KT 22/19 A30 RMK A01 T02160190  RH  085%=      5-min Rain = 0
KAM2 261537Z 16013G18KT 22/19 A30 RMK A01 T02160190  RH  086%=      5-min Rain = 0
KAM2 261538Z 16015KT 22/19 A30 RMK A01 T02150189  RH  085%=      5-min Rain = 0
KAM2 261539Z 16016KT 21/19 A30 RMK A01 T02140188  RH  085%=      5-min Rain = 0
KAM2 261540Z 16015KT 21/19 A30 RMK A01 T02140188  RH  085%=      5-min Rain = 0
KAM2 261541Z 16014KT 21/19 A30 RMK A01 T02140189  RH  086%=      5-min Rain = 0
KAM2 261542Z 17016KT 21/19 A30 RMK A01 T02130188  RH  086%=      5-min Rain = 0
KAM2 261543Z 16017KT 21/19 A30 RMK A01 T02130188  RH  085%=      5-min Rain = 0
KAM2 261544Z 16014KT 21/19 A30 RMK A01 T02120187  RH  085%=      5-min Rain = 0
KAM2 261545Z 16012KT 21/19 A30 RMK A01 T02120188  RH  086%=      5-min Rain = 0
KAM2 261546Z 16010G15KT 21/19 A30 RMK A01 T02120188  RH  086%=      5-min Rain = 0
KAM2 261547Z 16012KT 21/19 A30 RMK A01 T02120189  RH  087%=      5-min Rain = 0
KAM2 261548Z 16014KT 21/19 A30 RMK A01 T02120189  RH  087%=      5-min Rain = 0
KAM2 261549Z 17013KT 21/19 A30 RMK A01 T02120189  RH  087%=      5-min Rain = 0
KAM2 261550Z 16016KT 21/19 A30 RMK A01 T02120188  RH  086%=      5-min Rain = 0
KAM2 261551Z 16016KT 21/19 A30 RMK A01 T02120186  RH  085%=      5-min Rain = 0
KAM2 261552Z 16013KT 21/19 A30 RMK A01 T02110187  RH  086%=      5-min Rain = 0
KAM2 261553Z 17013KT 21/19 A30 RMK A01 T02110188  RH  086%=      5-min Rain = 0
KAM2 261554Z 16012KT 21/19 A30 RMK A01 T02110188  RH  086%=      5-min Rain = 0
KAM2 261555Z 15010KT 21/19 A30 RMK A01 T02110189  RH  087%=      5-min Rain = 0
KAM2 261556Z 16013KT 21/19 A30 RMK A01 T02110189  RH  087%=      5-min Rain = 0
KAM2 261557Z 15013KT 21/19 A30 RMK A01 T02110187  RH  086%=      5-min Rain = 0
KAM2 261558Z 16010KT 21/19 A30 RMK A01 T02110188  RH  087%=      5-min Rain = 0
KAM2 261559Z 16012KT 21/19 A30 RMK A01 T02110189  RH  087%=      5-min Rain = 0
KAM2 261600Z 15011KT 21/19 A30 RMK A01 T02110189  RH  087%=      5-min Rain = 0
KAM2 261601Z 15011KT 21/19 A30 RMK A01 T02110190  RH  088%=      5-min Rain = 0
KAM2 261602Z 15014KT 21/19 A30 RMK A01 T02110189  RH  087%=      5-min Rain = 0
KAM2 261603Z 15015KT 21/19 A30 RMK A01 T02100187  RH  087%=      5-min Rain = 0
KAM2 261604Z 16011KT 21/19 A30 RMK A01 T02100188  RH  087%=      5-min Rain = 0
KAM2 261605Z 15011KT 21/19 A30 RMK A01 T02100189  RH  088%=      5-min Rain = 0
KAM2 261606Z 15012KT 21/19 A30 RMK A01 T02110189  RH  088%=      5-min Rain = 0
KAM2 261607Z 15014KT 21/19 A30 RMK A01 T02100188  RH  087%=      5-min Rain = 0
KAM2 261608Z 15012KT 21/19 A30 RMK A01 T02100188  RH  087%=      5-min Rain = 0
KAM2 261609Z 15012KT 21/19 A30 RMK A01 T02110189  RH  088%=      5-min Rain = 0
KAM2 261610Z 16014KT 21/19 A30 RMK A01 T02100189  RH  087%=      5-min Rain = 0
KAM2 261611Z 15015KT 21/19 A30 RMK A01 T02100187  RH  087%=      5-min Rain = 0
KAM2 261612Z 15014KT 21/19 A30 RMK A01 T02100187  RH  087%=      5-min Rain = 0
KAM2 261613Z 15014KT 21/19 A30 RMK A01 T02100187  RH  087%=      5-min Rain = 0
KAM2 261614Z 15011KT 21/19 A30 RMK A01 T02100188  RH  087%=      5-min Rain = 0
KAM2 261615Z 16012KT 21/19 A30 RMK A01 T02100188  RH  087%=      5-min Rain = 0
KAM2 261616Z 16012KT 21/19 A30 RMK A01 T02100188  RH  087%=      5-min Rain = 0
KAM2 261617Z 15011KT 21/19 A30 RMK A01 T02100188  RH  087%=      5-min Rain = 0
KAM2 261618Z 15011KT 21/19 A30 RMK A01 T02100189  RH  087%=      5-min Rain = 0
KAM2 261619Z 15013KT 21/19 A30 RMK A01 T02110189  RH  087%=      5-min Rain = 0
KAM2 261620Z 15013KT 21/19 A30 RMK A01 T02110187  RH  086%=      5-min Rain = 0
KAM2 261621Z 16010KT 21/19 A30 RMK A01 T02110189  RH  087%=      5-min Rain = 0
KAM2 261622Z 16014KT 21/19 A30 RMK A01 T02120188  RH  086%=      5-min Rain = 0
KAM2 261623Z 16013KT 21/19 A30 RMK A01 T02120188  RH  086%=      5-min Rain = 0
KAM2 261624Z 16011KT 21/19 A30 RMK A01 T02120189  RH  087%=      5-min Rain = 0
KAM2 261625Z 17012KT 21/19 A30 RMK A01 T02120190  RH  087%=      5-min Rain = 0
KAM2 261626Z 16012KT 21/19 A30 RMK A01 T02110189  RH  087%=      5-min Rain = 0
KAM2 261627Z 16012KT 21/19 A30 RMK A01 T02110189  RH  087%=      5-min Rain = 0
KAM2 261628Z 16011KT 21/19 A30 RMK A01 T02110189  RH  088%=      5-min Rain = 0
KAM2 261629Z 16011KT 21/19 A30 RMK A01 T02100189  RH  088%=      5-min Rain = 0
KAM2 261630Z 17009KT 21/19 A30 RMK A01 T02100190  RH  088%=      5-min Rain = 0
KAM2 261631Z 17012KT 21/19 A30 RMK A01 T02100189  RH  088%=      5-min Rain = 0
KAM2 261632Z 16014KT 21/19 A30 RMK A01 T02100188  RH  087%=      5-min Rain = 0
KAM2 261633Z 17015KT 21/19 A30 RMK A01 T02100188  RH  087%=      5-min Rain = 0
KAM2 261634Z 16013KT 21/19 A30 RMK A01 T02110187  RH  087%=      5-min Rain = 0
KAM2 261635Z 16013KT 21/19 A30 RMK A01 T02100188  RH  087%=      5-min Rain = 0
KAM2 261636Z 16015KT 21/19 A30 RMK A01 T02110187  RH  087%=      5-min Rain = 0
KAM2 261637Z 17016KT 21/19 A30 RMK A01 T02110187  RH  086%=      5-min Rain = 0
KAM2 261638Z 17013KT 21/19 A30 RMK A01 T02110188  RH  087%=      5-min Rain = 0
KAM2 261639Z 17014KT 21/19 A30 RMK A01 T02110188  RH  087%=      5-min Rain = 0
KAM2 261640Z 17012KT 21/19 A30 RMK A01 T02110188  RH  087%=      5-min Rain = 0
KAM2 261641Z 17011KT 21/19 A30 RMK A01 T02100188  RH  087%=      5-min Rain = 0
KAM2 261642Z 16013KT 21/19 A30 RMK A01 T02100188  RH  087%=      5-min Rain = 0
KAM2 261643Z 17012KT 21/19 A30 RMK A01 T02100188  RH  087%=      5-min Rain = 0
KAM2 261644Z 17013KT 21/19 A30 RMK A01 T02100188  RH  087%=      5-min Rain = 0
KAM2 261645Z 17012KT 21/19 A30 RMK A01 T02100188  RH  087%=      5-min Rain = 0
KAM2 261646Z 18014KT 21/19 A30 RMK A01 T02100188  RH  087%=      5-min Rain = 0
KAM2 261647Z 17014KT 21/19 A30 RMK A01 T02110188  RH  087%=      5-min Rain = 0
KAM2 261648Z 17013KT 21/19 A30 RMK A01 T02110188  RH  087%=      5-min Rain = 0
KAM2 261649Z 16012KT 21/19 A30 RMK A01 T02110188  RH  087%=      5-min Rain = 0
KAM2 261650Z 17015KT 21/19 A30 RMK A01 T02120188  RH  086%=      5-min Rain = 0
KAM2 261651Z 16011KT 21/19 A30 RMK A01 T02130189  RH  086%=      5-min Rain = 0
KAM2 261652Z 16014KT 21/19 A30 RMK A01 T02140189  RH  086%=      5-min Rain = 0
KAM2 261653Z 17013KT 21/19 A30 RMK A01 T02140189  RH  085%=      5-min Rain = 0
KAM2 261654Z 17011KT 22/19 A30 RMK A01 T02150190  RH  086%=      5-min Rain = 0
KAM2 261655Z 17010KT 22/19 A30 RMK A01 T02150190  RH  085%=      5-min Rain = 0
KAM2 261656Z 16012KT 22/19 A30 RMK A01 T02160190  RH  085%=      5-min Rain = 0
KAM2 261657Z 16011KT 22/19 A30 RMK A01 T02160190  RH  085%=      5-min Rain = 0
KAM2 261658Z 16012KT 22/19 A30 RMK A01 T02170191  RH  085%=      5-min Rain = 0
KAM2 261659Z 16013KT 22/19 A30 RMK A01 T02170190  RH  085%=      5-min Rain = 0
KAM2 261700Z 16015KT 22/19 A30 RMK A01 T02180190  RH  084%=      5-min Rain = 0
KAM2 261701Z 16015KT 22/19 A30 RMK A01 T02180190  RH  084%=      5-min Rain = 0
KAM2 261702Z 16013KT 22/19 A30 RMK A01 T02180190  RH  084%=      5-min Rain = 0
KAM2 261703Z 16013G18KT 22/19 A30 RMK A01 T02180191  RH  085%=      5-min Rain = 0
KAM2 261704Z 15016KT 22/19 A30 RMK A01 T02180190  RH  084%=      5-min Rain = 0
KAM2 261705Z 15014KT 22/19 A30 RMK A01 T02180189  RH  084%=      5-min Rain = 0
KAM2 261706Z 16014KT 22/19 A30 RMK A01 T02170190  RH  084%=      5-min Rain = 0
KAM2 261707Z 16016KT 22/19 A30 RMK A01 T02170190  RH  084%=      5-min Rain = 0
KAM2 261708Z 16015KT 22/19 A30 RMK A01 T02170189  RH  084%=      5-min Rain = 0
KAM2 261709Z 16014KT 22/19 A30 RMK A01 T02160189  RH  084%=      5-min Rain = 0
KAM2 261710Z 16014KT 22/19 A30 RMK A01 T02160189  RH  085%=      5-min Rain = 0
KAM2 261711Z 16013KT 22/19 A30 RMK A01 T02160189  RH  085%=      5-min Rain = 0
KAM2 261712Z 16015KT 22/19 A30 RMK A01 T02150189  RH  085%=      5-min Rain = 0
KAM2 261713Z 16017KT 22/19 A30 RMK A01 T02150188  RH  085%=      5-min Rain = 0
KAM2 261714Z 16015KT 21/19 A30 RMK A01 T02140188  RH  085%=      5-min Rain = 0
KAM2 261715Z 15012KT 21/19 A30 RMK A01 T02130189  RH  086%=      5-min Rain = 0
KAM2 261716Z 16013KT 21/19 A30 RMK A01 T02130190  RH  086%=      5-min Rain = 0
KAM2 261717Z 17013KT 21/19 A30 RMK A01 T02130189  RH  086%=      5-min Rain = 0
KAM2 261718Z 16014KT 21/19 A30 RMK A01 T02130188  RH  086%=      5-min Rain = 0
KAM2 261719Z 16013KT 21/19 A30 RMK A01 T02130189  RH  086%=      5-min Rain = 0
KAM2 261720Z 16013KT 21/19 A30 RMK A01 T02130190  RH  086%=      5-min Rain = 0
KAM2 261721Z 16011KT 21/19 A30 RMK A01 T02130189  RH  086%=      5-min Rain = 0
KAM2 261722Z 17017KT 21/19 A2999 RMK A01 T02130189  RH  086%=      5-min Rain = 0
KAM2 261723Z 16016KT 21/19 A2999 RMK A01 T02140187  RH  085%=      5-min Rain = 0
KAM2 261724Z 16014KT 21/19 A2999 RMK A01 T02140187  RH  085%=      5-min Rain = 0
KAM2 261725Z 17011KT 22/19 A2999 RMK A01 T02150188  RH  085%=      5-min Rain = 0
KAM2 261726Z 16011KT 22/19 A2999 RMK A01 T02150189  RH  085%=      5-min Rain = 0
KAM2 261727Z 16011KT 22/19 A2999 RMK A01 T02160190  RH  085%=      5-min Rain = 0
KAM2 261728Z 16013KT 22/19 A30 RMK A01 T02160190  RH  085%=      5-min Rain = 0
KAM2 261729Z 16014KT 22/19 A30 RMK A01 T02160191  RH  085%=      5-min Rain = 0
KAM2 261730Z 16013KT 22/19 A30 RMK A01 T02160189  RH  085%=      5-min Rain = 0
KAM2 261731Z 16014KT 22/19 A30 RMK A01 T02150189  RH  085%=      5-min Rain = 0
KAM2 261732Z 16013KT 22/19 A30 RMK A01 T02150190  RH  086%=      5-min Rain = 0
KAM2 261733Z 16013KT 22/19 A30 RMK A01 T02150190  RH  086%=      5-min Rain = 0
KAM2 261734Z 15015KT 21/19 A2999 RMK A01 T02140190  RH  086%=      5-min Rain = 0
KAM2 261735Z 15014KT 21/19 A2999 RMK A01 T02140189  RH  086%=      5-min Rain = 0
KAM2 261736Z 16012KT 21/19 A2999 RMK A01 T02140190  RH  086%=      5-min Rain = 0
KAM2 261737Z 16012KT 21/19 A2999 RMK A01 T02140191  RH  087%=      5-min Rain = 0
KAM2 261738Z 15014KT 21/19 A2999 RMK A01 T02140191  RH  087%=      5-min Rain = 0
KAM2 261739Z 15014G19KT 21/19 A2999 RMK A01 T02130189  RH  086%=      5-min Rain = 0
KAM2 261740Z 16014G19KT 21/19 A2999 RMK A01 T02130189  RH  086%=      5-min Rain = 0
KAM2 261741Z 17014KT 21/19 A2999 RMK A01 T02130189  RH  086%=      5-min Rain = 0
KAM2 261742Z 16011KT 21/19 A2999 RMK A01 T02130189  RH  086%=      5-min Rain = 0
KAM2 261743Z 16012KT 21/19 A2999 RMK A01 T02140190  RH  087%=      5-min Rain = 0
KAM2 261744Z 17014G19KT 21/19 A2999 RMK A01 T02140190  RH  086%=      5-min Rain = 0
KAM2 261745Z 17014KT 21/19 A2999 RMK A01 T02140188  RH  085%=      5-min Rain = 0
KAM2 261746Z 17010KT 22/19 A2999 RMK A01 T02150189  RH  085%=      5-min Rain = 0
KAM2 261747Z 17012KT 22/19 A2999 RMK A01 T02150189  RH  085%=      5-min Rain = 0
KAM2 261748Z 17013G18KT 22/19 A2999 RMK A01 T02160189  RH  085%=      5-min Rain = 0
KAM2 261749Z 17012KT 22/19 A2999 RMK A01 T02160190  RH  085%=      5-min Rain = 0
KAM2 261750Z 16010KT 22/19 A2999 RMK A01 T02160191  RH  086%=      5-min Rain = 0
KAM2 261751Z 16010KT 22/19 A2999 RMK A01 T02170192  RH  086%=      5-min Rain = 0
KAM2 261752Z 16010KT 22/19 A2999 RMK A01 T02170193  RH  086%=      5-min Rain = 0
KAM2 261753Z 16010KT 22/19 A2999 RMK A01 T02170192  RH  086%=      5-min Rain = 0
KAM2 261754Z 15010KT 22/19 A2999 RMK A01 T02170193  RH  086%=      5-min Rain = 0
KAM2 261755Z 15011KT 22/19 A2999 RMK A01 T02170192  RH  085%=      5-min Rain = 0
KAM2 261756Z 15014KT 22/19 A2999 RMK A01 T02170191  RH  085%=      5-min Rain = 0
KAM2 261757Z 15015KT 22/19 A2999 RMK A01 T02170190  RH  085%=      5-min Rain = 0
KAM2 261758Z 16015KT 22/19 A2999 RMK A01 T02170190  RH  085%=      5-min Rain = 0
KAM2 261759Z 16016KT 22/19 A2999 RMK A01 T02160190  RH  085%=      5-min Rain = 0
KAM2 261800Z 16013KT 22/19 A2999 RMK A01 T02160190  RH  085%=      5-min Rain = 0
KAM2 261801Z 15011G16KT 22/19 A2999 RMK A01 T02150191  RH  086%=      5-min Rain = 0
KAM2 261802Z 15015KT 22/19 A2999 RMK A01 T02150190  RH  086%=      5-min Rain = 0
KAM2 261803Z 15015KT 22/19 A2999 RMK A01 T02150190  RH  086%=      5-min Rain = 0
KAM2 261804Z 16015KT 22/19 A2999 RMK A01 T02160190  RH  086%=      5-min Rain = 0
KAM2 261805Z 16016KT 22/19 A2999 RMK A01 T02150190  RH  086%=      5-min Rain = 0
KAM2 261806Z 15016KT 22/19 A2999 RMK A01 T02150190  RH  086%=      5-min Rain = 0
KAM2 261807Z 16015KT 21/19 A2999 RMK A01 T02140190  RH  086%=      5-min Rain = 0
KAM2 261808Z 16013KT 21/19 A2999 RMK A01 T02140190  RH  086%=      5-min Rain = 0
KAM2 261809Z 16014KT 21/19 A2998 RMK A01 T02140190  RH  086%=      5-min Rain = 0
KAM2 261810Z 16014KT 21/19 A2998 RMK A01 T02140190  RH  086%=      5-min Rain = 0
KAM2 261811Z 17010KT 21/19 A2998 RMK A01 T02140191  RH  087%=      5-min Rain = 0
KAM2 261812Z 16011KT 21/19 A2998 RMK A01 T02140191  RH  087%=      5-min Rain = 0
KAM2 261813Z 16013KT 21/19 A2998 RMK A01 T02140191  RH  086%=      5-min Rain = 0
KAM2 261814Z 17012KT 22/19 A2999 RMK A01 T02150191  RH  086%=      5-min Rain = 0
KAM2 261815Z 17011KT 22/19 A2999 RMK A01 T02160192  RH  086%=      5-min Rain = 0
KAM2 261816Z 17012KT 22/19 A2999 RMK A01 T02160191  RH  085%=      5-min Rain = 0
KAM2 261817Z 17012KT 22/19 A2999 RMK A01 T02170192  RH  085%=      5-min Rain = 0
KAM2 261818Z 18012KT 22/19 A2999 RMK A01 T02180192  RH  085%=      5-min Rain = 0
KAM2 261819Z 17012KT 22/19 A2999 RMK A01 T02180191  RH  085%=      5-min Rain = 0
KAM2 261820Z 18016KT 22/19 A2998 RMK A01 T02180190  RH  084%=      5-min Rain = 0
KAM2 261821Z 16012KT 22/19 A2998 RMK A01 T02180190  RH  084%=      5-min Rain = 0
KAM2 261822Z 15013KT 22/19 A2998 RMK A01 T02180190  RH  084%=      5-min Rain = 0
KAM2 261823Z 16013KT 22/19 A2998 RMK A01 T02180189  RH  084%=      5-min Rain = 0
KAM2 261824Z 17014KT 22/19 A2998 RMK A01 T02180190  RH  084%=      5-min Rain = 0
KAM2 261825Z 17011KT 22/19 A2998 RMK A01 T02180190  RH  084%=      5-min Rain = 0
KAM2 261826Z 16015KT 22/19 A2998 RMK A01 T02180190  RH  084%=      5-min Rain = 0
KAM2 261827Z 16016KT 22/19 A2998 RMK A01 T02180189  RH  084%=      5-min Rain = 0
KAM2 261828Z 16012KT 22/19 A2998 RMK A01 T02180190  RH  084%=      5-min Rain = 0
KAM2 261829Z 17013KT 22/19 A2998 RMK A01 T02180190  RH  084%=      5-min Rain = 0
KAM2 261830Z 17014KT 22/19 A2998 RMK A01 T02180189  RH  084%=      5-min Rain = 0
KAM2 261831Z 18012KT 22/19 A2999 RMK A01 T02180190  RH  084%=      5-min Rain = 0
KAM2 261832Z 17013KT 22/19 A2998 RMK A01 T02170189  RH  084%=      5-min Rain = 0
KAM2 261833Z 17012KT 22/19 A2998 RMK A01 T02170190  RH  084%=      5-min Rain = 0
KAM2 261834Z 18013KT 22/19 A2998 RMK A01 T02170189  RH  084%=      5-min Rain = 0
KAM2 261835Z 17011KT 22/19 A2998 RMK A01 T02170189  RH  084%=      5-min Rain = 0
KAM2 261836Z 16012KT 22/19 A2998 RMK A01 T02160190  RH  085%=      5-min Rain = 0
KAM2 261837Z 16011KT 22/19 A2998 RMK A01 T02150191  RH  086%=      5-min Rain = 0
KAM2 261838Z 16010KT 22/19 A2998 RMK A01 T02150191  RH  086%=      5-min Rain = 0
KAM2 261839Z 15011KT 21/19 A2998 RMK A01 T02140191  RH  087%=      5-min Rain = 0
KAM2 261840Z 16013KT 21/19 A2998 RMK A01 T02130191  RH  087%=      5-min Rain = 0
KAM2 261841Z 16012KT 21/19 A2998 RMK A01 T02130191  RH  087%=      5-min Rain = 0
KAM2 261842Z 16012KT 21/19 A2998 RMK A01 T02130192  RH  088%=      5-min Rain = 0
KAM2 261843Z 16012KT 21/19 A2998 RMK A01 T02130192  RH  088%=      5-min Rain = 0
KAM2 261844Z 16015KT 21/19 A2998 RMK A01 T02130191  RH  087%=      5-min Rain = 0
KAM2 261845Z 16013KT 21/19 A2998 RMK A01 T02130190  RH  087%=      5-min Rain = 0
KAM2 261846Z 15012KT 21/19 A2998 RMK A01 T02130191  RH  087%=      5-min Rain = 0
KAM2 261847Z 16013KT 21/19 A2997 RMK A01 T02130191  RH  087%=      5-min Rain = 0
KAM2 261848Z 16012KT 21/19 A2998 RMK A01 T02130192  RH  088%=      5-min Rain = 0
KAM2 261849Z 16013KT 21/19 A2998 RMK A01 T02130192  RH  088%=      5-min Rain = 0
KAM2 261850Z 16015KT 21/19 A2997 RMK A01 T02130192  RH  088%=      5-min Rain = 0
KAM2 261851Z 16016KT 21/19 A2997 RMK A01 T02130191  RH  087%=      5-min Rain = 0
KAM2 261852Z 17014KT 21/19 A2997 RMK A01 T02130191  RH  087%=      5-min Rain = 0
KAM2 261853Z 17012KT 21/19 A2997 RMK A01 T02140193  RH  087%=      5-min Rain = 0
KAM2 261854Z 16010G15KT 22/19 A2997 RMK A01 T02150194  RH  088%=      5-min Rain = 0
KAM2 261855Z 17013KT 22/19 A2997 RMK A01 T02160194  RH  087%=      5-min Rain = 0
KAM2 261856Z 17013G18KT 22/19 A2997 RMK A01 T02170194  RH  086%=      5-min Rain = 0
KAM2 261857Z 17014KT 22/19 A2997 RMK A01 T02180193  RH  086%=      5-min Rain = 0
KAM2 261858Z 17013KT 22/19 A2997 RMK A01 T02180193  RH  086%=      5-min Rain = 0
KAM2 261859Z 16014KT 22/19 A2997 RMK A01 T02180193  RH  086%=      5-min Rain = 0
KAM2 261900Z 17014KT 22/19 A2997 RMK A01 T02180193  RH  086%=      5-min Rain = 0
KAM2 261901Z 16012KT 22/19 A2997 RMK A01 T02190194  RH  086%=      5-min Rain = 0
KAM2 261902Z 17015KT 22/19 A2997 RMK A01 T02200194  RH  085%=      5-min Rain = 0
KAM2 261903Z 17017KT 22/19 A2997 RMK A01 T02200193  RH  085%=      5-min Rain = 0
KAM2 261904Z 17016KT 22/19 A2997 RMK A01 T02200192  RH  084%=      5-min Rain = 0
KAM2 261905Z 17013G18KT 22/19 A2997 RMK A01 T02200194  RH  085%=      5-min Rain = 0
KAM2 261906Z 16020KT 22/19 A2996 RMK A01 T02200193  RH  085%=      5-min Rain = 0
KAM2 261907Z 16018KT 22/19 A2996 RMK A01 T02200190  RH  083%=      5-min Rain = 0
KAM2 261908Z 16014KT 22/19 A2996 RMK A01 T02190192  RH  084%=      5-min Rain = 0
KAM2 261909Z 16017KT 22/19 A2996 RMK A01 T02180192  RH  085%=      5-min Rain = 0
KAM2 261910Z 17017KT 22/19 A2996 RMK A01 T02180192  RH  085%=      5-min Rain = 0
KAM2 261911Z 17018G23KT 22/19 A2996 RMK A01 T02170192  RH  086%=      5-min Rain = 0
KAM2 261912Z 17020KT 22/19 A2996 RMK A01 T02160190  RH  085%=      5-min Rain = 0
KAM2 261913Z 17021KT 22/19 A2996 RMK A01 T02160189  RH  085%=      5-min Rain = 0
KAM2 261914Z 17020KT 22/19 A2996 RMK A01 T02150188  RH  085%=      5-min Rain = 0
KAM2 261915Z 17020KT 22/19 A2996 RMK A01 T02150189  RH  085%=      5-min Rain = 0
KAM2 261916Z 17016G21KT 21/19 A2996 RMK A01 T02140188  RH  085%=      5-min Rain = 0
KAM2 261917Z 17017KT 21/19 A2996 RMK A01 T02140190  RH  086%=      5-min Rain = 0
KAM2 261918Z 16018KT 21/19 A2997 RMK A01 T02130190  RH  087%=      5-min Rain = 0
KAM2 261919Z 16017G22KT 21/19 A2997 RMK A01 T02120191  RH  087%=      5-min Rain = 0
KAM2 261920Z 17017KT 21/19 A2997 RMK A01 T02110191  RH  088%=      5-min Rain = 0
KAM2 261921Z 17013KT 21/19 A2997 RMK A01 T02100191  RH  089%=      5-min Rain = 0
KAM2 261922Z 16012KT 21/19 A2997 RMK A01 T02100192  RH  089%=      5-min Rain = 0
KAM2 261923Z 17015KT 21/19 A2997 RMK A01 T02090191  RH  089%=      5-min Rain = 0
KAM2 261924Z 17015G20KT 21/19 A2997 RMK A01 T02090191  RH  090%=      5-min Rain = 0
KAM2 261925Z 17015KT 21/19 A2997 RMK A01 T02080191  RH  090%=      5-min Rain = 0
KAM2 261926Z 17016KT 21/19 A2997 RMK A01 T02080190  RH  090%=      5-min Rain = 0
KAM2 261927Z 17015KT 21/19 A2997 RMK A01 T02080190  RH  089%=      5-min Rain = 0
KAM2 261928Z 17013KT 21/19 A2998 RMK A01 T02080190  RH  089%=      5-min Rain = 0
KAM2 261929Z 17014KT 21/19 A2998 RMK A01 T02080190  RH  090%=      5-min Rain = 0
KAM2 261930Z 18016KT 21/19 A2998 RMK A01 T02080191  RH  090%=      5-min Rain = 0
KAM2 261931Z 17013KT 21/19 A2998 RMK A01 T02080190  RH  089%=      5-min Rain = 0
KAM2 261932Z 18012KT 21/19 A2998 RMK A01 T02080191  RH  090%=      5-min Rain = 0
KAM2 261933Z 17016KT 21/19 A2998 RMK A01 T02080190  RH  090%=      5-min Rain = 0
KAM2 261934Z 18014KT 21/19 A2998 RMK A01 T02080190  RH  089%=      5-min Rain = 0
KAM2 261935Z 17014KT 21/19 A2998 RMK A01 T02080190  RH  089%=      5-min Rain = 0
KAM2 261936Z 18013KT 21/19 A2999 RMK A01 T02080190  RH  090%=      5-min Rain = 0
KAM2 261937Z 18013KT 21/19 A2999 RMK A01 T02080190  RH  090%=      5-min Rain = 0
KAM2 261938Z 18012KT 21/19 A2999 RMK A01 T02080191  RH  090%=      5-min Rain = 0
KAM2 261939Z 17013KT 21/19 A2999 RMK A01 T02080191  RH  090%=      5-min Rain = 0
KAM2 261940Z 18015KT 21/19 A2998 RMK A01 T02070190  RH  090%=      5-min Rain = 0
KAM2 261941Z 18015KT 21/19 A2999 RMK A01 T02080190  RH  090%=      5-min Rain = 0
KAM2 261942Z 18017KT 21/19 A2999 RMK A01 T02080190  RH  090%=      5-min Rain = 0
KAM2 261943Z 17015KT 21/19 A2999 RMK A01 T02070191  RH  090%=      5-min Rain = 0
KAM2 261944Z 18013KT 21/19 A2999 RMK A01 T02070191  RH  091%=      5-min Rain = 0
KAM2 261945Z 18012KT 21/19 A2999 RMK A01 T02060192  RH  092%=      5-min Rain = 0
KAM2 261946Z 18013KT 21/19 A2999 RMK A01 T02050192  RH  092%=      5-min Rain = 0
KAM2 261947Z 18011KT 20/19 A2999 RMK A01 T02040192  RH  092%=      5-min Rain = 0
KAM2 261948Z 18015KT 20/19 A2998 RMK A01 T02040192  RH  093%=      5-min Rain = 0
KAM2 261949Z 19016KT 20/19 A2999 RMK A01 T02040191  RH  093%=      5-min Rain = 0
KAM2 261950Z 20016KT 20/19 A30 RMK A01 T02030192  RH  093%=      5-min Rain = 0.01
KAM2 261951Z 22015G20KT 20/19 A30 RMK A01 T02030192  RH  093%=      5-min Rain = 0.03
KAM2 261952Z 23010KT 20/19 A30 RMK A01 T02020192  RH  094%=      5-min Rain = 0.03
KAM2 261953Z 23011KT 20/19 A3001 RMK A01 T02010192  RH  095%=      5-min Rain = 0.05
KAM2 261954Z 22012KT 20/19 A3001 RMK A01 T02000192  RH  095%=      5-min Rain = 0.05
KAM2 261955Z 22011G17KT 20/19 A3001 RMK A01 T01990192  RH  096%=      5-min Rain = 0.05
KAM2 261956Z 21012KT 20/19 A3001 RMK A01 T01970191  RH  096%=      5-min Rain = 0.07
KAM2 261957Z 19015KT 20/19 A30 RMK A01 T01950189  RH  096%=      5-min Rain = 0.08
KAM2 261958Z 18013KT 19/18 A2999 RMK A01 T01930184  RH  095%=      5-min Rain = 0.06
KAM2 261959Z 17010KT 19/18 A2998 RMK A01 T01920184  RH  095%=      5-min Rain = 0.04
KAM2 262000Z 15012KT 19/18 A2997 RMK A01 T01900181  RH  095%=      5-min Rain = 0.01
KAM2 262001Z 16012KT 19/18 A2996 RMK A01 T01870176  RH  093%=      5-min Rain = 0.01
KAM2 262002Z 14014KT 19/18 A2996 RMK A01 T01860175  RH  093%=      5-min Rain = 0
KAM2 262003Z 13014KT 19/17 A2996 RMK A01 T01860172  RH  092%=      5-min Rain = 0
KAM2 262004Z 13013KT 19/17 A2996 RMK A01 T01860173  RH  092%=      5-min Rain = 0
KAM2 262005Z 14011KT 19/17 A2996 RMK A01 T01860174  RH  093%=      5-min Rain = 0
KAM2 262006Z 14012KT 19/18 A2996 RMK A01 T01860177  RH  094%=      5-min Rain = 0.01
KAM2 262007Z 14012KT 19/18 A2996 RMK A01 T01870180  RH  095%=      5-min Rain = 0
KAM2 262008Z 14011KT 19/18 A2996 RMK A01 T01880182  RH  096%=      5-min Rain = 0
KAM2 262009Z 15012KT 19/18 A2996 RMK A01 T01890183  RH  096%=      5-min Rain = 0
KAM2 262010Z 15012KT 19/18 A2996 RMK A01 T01890184  RH  097%=      5-min Rain = 0
KAM2 262011Z 15013KT 19/18 A2996 RMK A01 T01890183  RH  096%=      5-min Rain = 0
KAM2 262012Z 15013KT 19/18 A2996 RMK A01 T01890179  RH  094%=      5-min Rain = 0
KAM2 262013Z 15014KT 19/18 A2996 RMK A01 T01890175  RH  091%=      5-min Rain = 0
KAM2 262014Z 15013KT 19/17 A2995 RMK A01 T01890171  RH  089%=      5-min Rain = 0
KAM2 262015Z 15014KT 19/17 A2995 RMK A01 T01880170  RH  089%=      5-min Rain = 0
KAM2 262016Z 15012KT 19/17 A2996 RMK A01 T01880169  RH  089%=      5-min Rain = 0
KAM2 262017Z 14012KT 19/17 A2996 RMK A01 T01870167  RH  088%=      5-min Rain = 0
KAM2 262018Z 14012KT 19/16 A2995 RMK A01 T01860164  RH  087%=      5-min Rain = 0
KAM2 262019Z 13012KT 19/16 A2995 RMK A01 T01850161  RH  086%=      5-min Rain = 0
KAM2 262020Z 12012KT 18/16 A2994 RMK A01 T01840161  RH  086%=      5-min Rain = 0
KAM2 262021Z 13011KT 18/16 A2994 RMK A01 T01830163  RH  088%=      5-min Rain = 0
KAM2 262022Z 13010KT 18/17 A2994 RMK A01 T01830165  RH  089%=      5-min Rain = 0
KAM2 262023Z 14010KT 18/17 A2994 RMK A01 T01830166  RH  090%=      5-min Rain = 0
KAM2 262024Z 14010KT 18/17 A2994 RMK A01 T01840168  RH  090%=      5-min Rain = 0
KAM2 262025Z 13011KT 18/17 A2994 RMK A01 T01840169  RH  091%=      5-min Rain = 0
KAM2 262026Z 13010KT 19/17 A2993 RMK A01 T01850169  RH  090%=      5-min Rain = 0
KAM2 262027Z 13012KT 19/17 A2993 RMK A01 T01860171  RH  090%=      5-min Rain = 0
KAM2 262028Z 14013KT 19/17 A2994 RMK A01 T01870171  RH  091%=      5-min Rain = 0
KAM2 262029Z 14012KT 19/17 A2994 RMK A01 T01870172  RH  091%=      5-min Rain = 0
KAM2 262030Z 14013KT 19/17 A2994 RMK A01 T01870173  RH  091%=      5-min Rain = 0
KAM2 262031Z 14011KT 19/18 A2994 RMK A01 T01880175  RH  092%=      5-min Rain = 0
KAM2 262032Z 14011KT 19/18 A2994 RMK A01 T01870176  RH  093%=      5-min Rain = 0
KAM2 262033Z 14012KT 19/18 A2994 RMK A01 T01880176  RH  093%=      5-min Rain = 0
KAM2 262034Z 13012KT 19/18 A2993 RMK A01 T01880177  RH  093%=      5-min Rain = 0
KAM2 262035Z 13015KT 19/18 A2993 RMK A01 T01880177  RH  093%=      5-min Rain = 0
KAM2 262036Z 13013KT 19/18 A2993 RMK A01 T01890177  RH  093%=      5-min Rain = 0
KAM2 262037Z 12012KT 19/18 A2992 RMK A01 T01890177  RH  093%=      5-min Rain = 0
KAM2 262038Z 13013KT 19/18 A2992 RMK A01 T01890178  RH  093%=      5-min Rain = 0
KAM2 262039Z 13012KT 19/18 A2992 RMK A01 T01900179  RH  094%=      5-min Rain = 0
KAM2 262040Z 14011KT 19/18 A2993 RMK A01 T01910181  RH  094%=      5-min Rain = 0
KAM2 262041Z 15014KT 19/18 A2994 RMK A01 T01920183  RH  094%=      5-min Rain = 0
KAM2 262042Z 15015KT 19/18 A2995 RMK A01 T01940183  RH  094%=      5-min Rain = 0
KAM2 262043Z 14016KT 20/18 A2994 RMK A01 T01950184  RH  094%=      5-min Rain = 0
KAM2 262044Z 14014KT 20/19 A2994 RMK A01 T01960185  RH  094%=      5-min Rain = 0
KAM2 262045Z 14014KT 20/19 A2994 RMK A01 T01970187  RH  094%=      5-min Rain = 0
KAM2 262046Z 14015KT 20/19 A2994 RMK A01 T01990189  RH  094%=      5-min Rain = 0
KAM2 262047Z 14015KT 20/19 A2994 RMK A01 T02000191  RH  094%=      5-min Rain = 0
KAM2 262048Z 14015G22KT 20/19 A2993 RMK A01 T02010192  RH  095%=      5-min Rain = 0
KAM2 262049Z 14015KT 20/19 A2993 RMK A01 T02020193  RH  095%=      5-min Rain = 0
KAM2 262050Z 14017G22KT 20/19 A2993 RMK A01 T02030194  RH  095%=      5-min Rain = 0
KAM2 262051Z 14017KT 20/19 A2993 RMK A01 T02040194  RH  094%=      5-min Rain = 0
KAM2 262052Z 14019G25KT 20/20 A2993 RMK A01 T02040195  RH  094%=      5-min Rain = 0
KAM2 262053Z 15021G27KT 21/20 A2994 RMK A01 T02050195  RH  094%=      5-min Rain = 0
KAM2 262054Z 15021KT 21/19 A2994 RMK A01 T02050194  RH  094%=      5-min Rain = 0
KAM2 262055Z 15021KT 21/19 A2994 RMK A01 T02050194  RH  093%=      5-min Rain = 0
KAM2 262056Z 15019KT 21/19 A2993 RMK A01 T02050194  RH  093%=      5-min Rain = 0
KAM2 262057Z 15016G21KT 21/20 A2993 RMK A01 T02060195  RH  093%=      5-min Rain = 0
KAM2 262058Z 15019G24KT 21/20 A2993 RMK A01 T02070196  RH  094%=      5-min Rain = 0
KAM2 262059Z 15019G24KT 21/20 A2993 RMK A01 T02070195  RH  093%=      5-min Rain = 0
KAM2 262100Z 15023G29KT 21/20 A2993 RMK A01 T02070195  RH  092%=      5-min Rain = 0
KAM2 262101Z 16024G29KT 21/19 A2993 RMK A01 T02080194  RH  092%=      5-min Rain = 0
KAM2 262102Z 15021G27KT 21/20 A2994 RMK A01 T02080195  RH  092%=      5-min Rain = 0
KAM2 262103Z 15023KT 21/19 A2993 RMK A01 T02070194  RH  092%=      5-min Rain = 0
KAM2 262104Z 15017G25KT 21/19 A2994 RMK A01 T02070194  RH  092%=      5-min Rain = 0
KAM2 262105Z 15017G25KT 21/20 A2994 RMK A01 T02070195  RH  093%=      5-min Rain = 0
KAM2 262106Z 15016KT 21/19 A2993 RMK A01 T02060194  RH  093%=      5-min Rain = 0
KAM2 262107Z 16019KT 21/19 A2993 RMK A01 T02060193  RH  092%=      5-min Rain = 0
KAM2 262108Z 15020G25KT 21/19 A2993 RMK A01 T02050192  RH  092%=      5-min Rain = 0
KAM2 262109Z 15019G24KT 21/19 A2993 RMK A01 T02050192  RH  092%=      5-min Rain = 0
KAM2 262110Z 15018G23KT 21/19 A2993 RMK A01 T02050192  RH  092%=      5-min Rain = 0
KAM2 262111Z 15016KT 21/19 A2992 RMK A01 T02050192  RH  092%=      5-min Rain = 0
KAM2 262112Z 14016KT 21/19 A2992 RMK A01 T02050192  RH  092%=      5-min Rain = 0
KAM2 262113Z 15015KT 21/19 A2992 RMK A01 T02060193  RH  093%=      5-min Rain = 0
KAM2 262114Z 14018KT 21/19 A2992 RMK A01 T02070194  RH  093%=      5-min Rain = 0
KAM2 262115Z 15017KT 21/19 A2992 RMK A01 T02070194  RH  092%=      5-min Rain = 0
KAM2 262116Z 15019KT 21/19 A2992 RMK A01 T02080194  RH  092%=      5-min Rain = 0
KAM2 262117Z 15016KT 21/19 A2992 RMK A01 T02080194  RH  092%=      5-min Rain = 0
KAM2 262118Z 14017KT 21/19 A2991 RMK A01 T02080194  RH  092%=      5-min Rain = 0
KAM2 262119Z 14014G21KT 21/20 A2991 RMK A01 T02080195  RH  092%=      5-min Rain = 0
KAM2 262120Z 13013KT 21/20 A299 RMK A01 T02090195  RH  092%=      5-min Rain = 0
KAM2 262121Z 13013KT 21/20 A299 RMK A01 T02090196  RH  092%=      5-min Rain = 0
KAM2 262122Z 14015KT 21/20 A2991 RMK A01 T02100196  RH  092%=      5-min Rain = 0
KAM2 262123Z 15019KT 21/20 A2993 RMK A01 T02100196  RH  092%=      5-min Rain = 0
KAM2 262124Z 15020KT 21/20 A2993 RMK A01 T02100196  RH  092%=      5-min Rain = 0
KAM2 262125Z 15019G25KT 21/20 A2994 RMK A01 T02100196  RH  092%=      5-min Rain = 0
KAM2 262126Z 15020KT 21/20 A2994 RMK A01 T02090195  RH  092%=      5-min Rain = 0
KAM2 262127Z 13017KT 21/20 A2993 RMK A01 T02080195  RH  092%=      5-min Rain = 0
KAM2 262128Z 14023KT 21/19 A2993 RMK A01 T02080194  RH  092%=      5-min Rain = 0
KAM2 262129Z 15019KT 21/19 A2993 RMK A01 T02080194  RH  092%=      5-min Rain = 0
KAM2 262130Z 15016KT 21/19 A2992 RMK A01 T02070194  RH  092%=      5-min Rain = 0
KAM2 262131Z 15017KT 21/19 A2992 RMK A01 T02070194  RH  092%=      5-min Rain = 0
KAM2 262132Z 15018KT 21/19 A2992 RMK A01 T02080194  RH  092%=      5-min Rain = 0
KAM2 262133Z 14018KT 21/20 A2992 RMK A01 T02090195  RH  092%=      5-min Rain = 0
KAM2 262134Z 15017G24KT 21/20 A2992 RMK A01 T02090195  RH  091%=      5-min Rain = 0
KAM2 262135Z 15017G26KT 21/20 A2991 RMK A01 T02100195  RH  091%=      5-min Rain = 0
KAM2 262136Z 14017KT 21/20 A2991 RMK A01 T02100195  RH  091%=      5-min Rain = 0
KAM2 262137Z 14020KT 21/20 A2991 RMK A01 T02110196  RH  091%=      5-min Rain = 0
KAM2 262138Z 15017G22KT 21/20 A2991 RMK A01 T02110196  RH  091%=      5-min Rain = 0
KAM2 262139Z 15017G22KT 21/20 A2991 RMK A01 T02110196  RH  091%=      5-min Rain = 0
KAM2 262140Z 15016KT 21/20 A2991 RMK A01 T02120196  RH  091%=      5-min Rain = 0
KAM2 262141Z 14017G23KT 21/20 A299 RMK A01 T02120196  RH  090%=      5-min Rain = 0
KAM2 262142Z 15018G24KT 21/20 A299 RMK A01 T02120195  RH  090%=      5-min Rain = 0
KAM2 262143Z 14016G23KT 21/20 A299 RMK A01 T02120195  RH  090%=      5-min Rain = 0
KAM2 262144Z 14019KT 21/20 A2989 RMK A01 T02120195  RH  090%=      5-min Rain = 0
KAM2 262145Z 14017KT 21/20 A2989 RMK A01 T02120195  RH  090%=      5-min Rain = 0
KAM2 262146Z 14017KT 21/20 A2989 RMK A01 T02120196  RH  090%=      5-min Rain = 0
KAM2 262147Z 14016KT 21/20 A2989 RMK A01 T02120196  RH  090%=      5-min Rain = 0
KAM2 262148Z 14015KT 21/20 A2989 RMK A01 T02120197  RH  091%=      5-min Rain = 0
KAM2 262149Z 15014G21KT 21/20 A2989 RMK A01 T02130198  RH  091%=      5-min Rain = 0
KAM2 262150Z 15018KT 21/20 A299 RMK A01 T02130197  RH  090%=      5-min Rain = 0
KAM2 262151Z 15019KT 21/20 A2989 RMK A01 T02130196  RH  090%=      5-min Rain = 0
KAM2 262152Z 15019KT 21/20 A299 RMK A01 T02140196  RH  090%=      5-min Rain = 0
KAM2 262153Z 15018KT 21/20 A2989 RMK A01 T02130197  RH  090%=      5-min Rain = 0
KAM2 262154Z 14017KT 21/20 A2989 RMK A01 T02140197  RH  090%=      5-min Rain = 0
KAM2 262155Z 14016KT 21/20 A2989 RMK A01 T02140197  RH  090%=      5-min Rain = 0
KAM2 262156Z 14016KT 21/20 A2989 RMK A01 T02140197  RH  090%=      5-min Rain = 0
KAM2 262157Z 13017G22KT 21/20 A2988 RMK A01 T02140197  RH  090%=      5-min Rain = 0
KAM2 262158Z 14018KT 21/20 A2988 RMK A01 T02140196  RH  090%=      5-min Rain = 0
KAM2 262159Z 14018G24KT 21/20 A2988 RMK A01 T02140196  RH  089%=      5-min Rain = 0
KAM2 262200Z 14021KT 21/20 A2987 RMK A01 T02130196  RH  090%=      5-min Rain = 0
KAM2 262201Z 15018G23KT 21/20 A2987 RMK A01 T02130195  RH  090%=      5-min Rain = 0
KAM2 262202Z 14017KT 21/20 A2987 RMK A01 T02120195  RH  090%=      5-min Rain = 0
KAM2 262203Z 14017KT 21/20 A2987 RMK A01 T02120195  RH  090%=      5-min Rain = 0
KAM2 262204Z 14014KT 21/20 A2987 RMK A01 T02120196  RH  091%=      5-min Rain = 0
KAM2 262205Z 14019KT 21/20 A2987 RMK A01 T02120196  RH  091%=      5-min Rain = 0
KAM2 262206Z 13018KT 21/20 A2986 RMK A01 T02110195  RH  090%=      5-min Rain = 0
KAM2 262207Z 14020KT 21/20 A2986 RMK A01 T02110195  RH  091%=      5-min Rain = 0
KAM2 262208Z 13018G27KT 21/19 A2986 RMK A01 T02100194  RH  091%=      5-min Rain = 0
KAM2 262209Z 13022KT 21/19 A2985 RMK A01 T02090194  RH  091%=      5-min Rain = 0
KAM2 262210Z 14020G26KT 21/19 A2985 RMK A01 T02090194  RH  091%=      5-min Rain = 0
KAM2 262211Z 14020G25KT 21/19 A2986 RMK A01 T02090194  RH  091%=      5-min Rain = 0
KAM2 262212Z 15024G30KT 21/19 A2987 RMK A01 T02090194  RH  091%=      5-min Rain = 0
KAM2 262213Z 15024G29KT 21/19 A2987 RMK A01 T02090193  RH  091%=      5-min Rain = 0
KAM2 262214Z 15025G32KT 21/19 A2987 RMK A01 T02090193  RH  091%=      5-min Rain = 0
KAM2 262215Z 15023G28KT 21/19 A2988 RMK A01 T02090193  RH  091%=      5-min Rain = 0
KAM2 262216Z 15023G30KT 21/19 A2988 RMK A01 T02090193  RH  090%=      5-min Rain = 0
KAM2 262217Z 15027G32KT 21/19 A2987 RMK A01 T02090193  RH  090%=      5-min Rain = 0
KAM2 262218Z 14023G34KT 21/19 A2986 RMK A01 T02090192  RH  090%=      5-min Rain = 0
KAM2 262219Z 15023G32KT 21/19 A2986 RMK A01 T02090192  RH  090%=      5-min Rain = 0
KAM2 262220Z 14026G31KT 21/19 A2985 RMK A01 T02100191  RH  089%=      5-min Rain = 0
KAM2 262221Z 14027G34KT 21/19 A2985 RMK A01 T02110191  RH  088%=      5-min Rain = 0
KAM2 262222Z 14024G29KT 21/19 A2985 RMK A01 T02110190  RH  088%=      5-min Rain = 0
KAM2 262223Z 15022G27KT 21/19 A2985 RMK A01 T02110191  RH  089%=      5-min Rain = 0
KAM2 262224Z 14022G29KT 21/19 A2985 RMK A01 T02100191  RH  089%=      5-min Rain = 0
KAM2 262225Z 14023G30KT 21/19 A2985 RMK A01 T02100193  RH  090%=      5-min Rain = 0
KAM2 262226Z 14021G29KT 21/19 A2986 RMK A01 T02100192  RH  089%=      5-min Rain = 0
KAM2 262227Z 15023G31KT 21/19 A2986 RMK A01 T02090192  RH  090%=      5-min Rain = 0
KAM2 262228Z 15028KT 21/19 A2986 RMK A01 T02090191  RH  090%=      5-min Rain = 0
KAM2 262229Z 15023KT 21/19 A2986 RMK A01 T02080191  RH  090%=      5-min Rain = 0
KAM2 262230Z 14026G32KT 21/19 A2986 RMK A01 T02080191  RH  090%=      5-min Rain = 0
KAM2 262231Z 15023G30KT 21/19 A2986 RMK A01 T02080191  RH  090%=      5-min Rain = 0
KAM2 262232Z 14023KT 21/19 A2985 RMK A01 T02070191  RH  090%=      5-min Rain = 0
KAM2 262233Z 15023G30KT 21/19 A2986 RMK A01 T02070191  RH  090%=      5-min Rain = 0
KAM2 262234Z 15023G28KT 21/19 A2986 RMK A01 T02070191  RH  090%=      5-min Rain = 0
KAM2 262235Z 14020KT 21/19 A2985 RMK A01 T02070191  RH  091%=      5-min Rain = 0
KAM2 262236Z 14021G28KT 21/19 A2984 RMK A01 T02070191  RH  091%=      5-min Rain = 0
KAM2 262237Z 14019G24KT 21/19 A2984 RMK A01 T02070192  RH  091%=      5-min Rain = 0
KAM2 262238Z 14023KT 21/19 A2984 RMK A01 T02060191  RH  091%=      5-min Rain = 0
KAM2 262239Z 14021G29KT 21/19 A2984 RMK A01 T02060191  RH  091%=      5-min Rain = 0
KAM2 262240Z 15021KT 21/19 A2984 RMK A01 T02060191  RH  091%=      5-min Rain = 0
KAM2 262241Z 15020KT 21/19 A2984 RMK A01 T02060191  RH  091%=      5-min Rain = 0
KAM2 262242Z 15019G25KT 21/19 A2985 RMK A01 T02060191  RH  091%=      5-min Rain = 0
KAM2 262243Z 15024G31KT 21/19 A2985 RMK A01 T02060191  RH  091%=      5-min Rain = 0
KAM2 262244Z 15017KT 21/19 A2985 RMK A01 T02060190  RH  091%=      5-min Rain = 0
KAM2 262245Z 15020KT 21/19 A2984 RMK A01 T02070191  RH  091%=      5-min Rain = 0
KAM2 262246Z 15019G25KT 21/19 A2984 RMK A01 T02080192  RH  090%=      5-min Rain = 0
KAM2 262247Z 15021G26KT 21/19 A2984 RMK A01 T02080192  RH  090%=      5-min Rain = 0
KAM2 262248Z 15020G25KT 21/19 A2984 RMK A01 T02080192  RH  090%=      5-min Rain = 0
KAM2 262249Z 15020G28KT 21/19 A2984 RMK A01 T02090192  RH  090%=      5-min Rain = 0
KAM2 262250Z 15023G28KT 21/19 A2984 RMK A01 T02090192  RH  090%=      5-min Rain = 0
KAM2 262251Z 14022G30KT 21/19 A2984 RMK A01 T02100192  RH  089%=      5-min Rain = 0
KAM2 262252Z 15022G28KT 21/19 A2984 RMK A01 T02110192  RH  089%=      5-min Rain = 0
KAM2 262253Z 14024G31KT 21/19 A2984 RMK A01 T02110192  RH  089%=      5-min Rain = 0
KAM2 262254Z 15026G32KT 21/19 A2984 RMK A01 T02110191  RH  088%=      5-min Rain = 0
KAM2 262255Z 15023G29KT 21/19 A2984 RMK A01 T02110192  RH  089%=      5-min Rain = 0
KAM2 262256Z 14026G32KT 21/19 A2983 RMK A01 T02120192  RH  088%=      5-min Rain = 0
KAM2 262257Z 14024G31KT 21/19 A2983 RMK A01 T02120192  RH  088%=      5-min Rain = 0
KAM2 262258Z 15024G31KT 21/19 A2983 RMK A01 T02130193  RH  088%=      5-min Rain = 0
KAM2 262259Z 15022G30KT 21/19 A2983 RMK A01 T02140192  RH  087%=      5-min Rain = 0
KAM2 262300Z 14021G27KT 21/19 A2984 RMK A01 T02130193  RH  088%=      5-min Rain = 0
KAM2 262301Z 15024G32KT 21/19 A2984 RMK A01 T02140193  RH  088%=      5-min Rain = 0
KAM2 262302Z 15025KT 21/19 A2984 RMK A01 T02140192  RH  087%=      5-min Rain = 0
KAM2 262303Z 14023G28KT 21/19 A2984 RMK A01 T02130192  RH  088%=      5-min Rain = 0
KAM2 262304Z 14023KT 21/19 A2984 RMK A01 T02130192  RH  088%=      5-min Rain = 0
KAM2 262305Z 15022KT 21/19 A2984 RMK A01 T02140193  RH  088%=      5-min Rain = 0
KAM2 262306Z 15024G31KT 21/19 A2984 RMK A01 T02140193  RH  088%=      5-min Rain = 0
KAM2 262307Z 15024G29KT 21/19 A2984 RMK A01 T02130192  RH  088%=      5-min Rain = 0
KAM2 262308Z 15019G30KT 21/19 A2985 RMK A01 T02130192  RH  088%=      5-min Rain = 0
KAM2 262309Z 16023G31KT 21/19 A2984 RMK A01 T02130193  RH  088%=      5-min Rain = 0
KAM2 262310Z 15022G30KT 21/19 A2984 RMK A01 T02130193  RH  088%=      5-min Rain = 0
KAM2 262311Z 16024G31KT 21/19 A2984 RMK A01 T02120192  RH  088%=      5-min Rain = 0
KAM2 262312Z 16026KT 21/19 A2984 RMK A01 T02110191  RH  088%=      5-min Rain = 0
KAM2 262313Z 16025KT 21/19 A2984 RMK A01 T02110191  RH  088%=      5-min Rain = 0
KAM2 262314Z 15022G27KT 21/19 A2984 RMK A01 T02100191  RH  089%=      5-min Rain = 0
KAM2 262315Z 15025G30KT 21/19 A2984 RMK A01 T02100191  RH  089%=      5-min Rain = 0
KAM2 262316Z 16022KT 21/19 A2984 RMK A01 T02100191  RH  089%=      5-min Rain = 0
KAM2 262317Z 16022G30KT 21/19 A2984 RMK A01 T02090191  RH  089%=      5-min Rain = 0
KAM2 262318Z 16022G28KT 21/19 A2985 RMK A01 T02100191  RH  089%=      5-min Rain = 0
KAM2 262319Z 16021G26KT 21/19 A2985 RMK A01 T02100191  RH  089%=      5-min Rain = 0
KAM2 262320Z 15021G26KT 21/19 A2985 RMK A01 T02100191  RH  089%=      5-min Rain = 0
KAM2 262321Z 16022KT 21/19 A2985 RMK A01 T02100191  RH  089%=      5-min Rain = 0
KAM2 262322Z 16024G29KT 21/19 A2985 RMK A01 T02100191  RH  089%=      5-min Rain = 0
KAM2 262323Z 15026KT 21/19 A2985 RMK A01 T02100190  RH  088%=      5-min Rain = 0
KAM2 262324Z 16023KT 21/19 A2985 RMK A01 T02100190  RH  089%=      5-min Rain = 0
KAM2 262325Z 16019KT 21/19 A2986 RMK A01 T02090191  RH  089%=      5-min Rain = 0
KAM2 262326Z 16025G31KT 21/19 A2986 RMK A01 T02090192  RH  089%=      5-min Rain = 0
KAM2 262327Z 15027G32KT 21/19 A2985 RMK A01 T02090191  RH  089%=      5-min Rain = 0
KAM2 262328Z 15023KT 21/19 A2985 RMK A01 T02090190  RH  089%=      5-min Rain = 0
KAM2 262329Z 16023KT 21/19 A2986 RMK A01 T02080190  RH  090%=      5-min Rain = 0
KAM2 262330Z 16022KT 21/19 A2985 RMK A01 T02080190  RH  090%=      5-min Rain = 0
KAM2 262331Z 16025G30KT 21/19 A2985 RMK A01 T02070190  RH  090%=      5-min Rain = 0
KAM2 262332Z 15022KT 21/19 A2985 RMK A01 T02070190  RH  090%=      5-min Rain = 0
KAM2 262333Z 15023G30KT 21/19 A2985 RMK A01 T02070190  RH  090%=      5-min Rain = 0
KAM2 262334Z 15021G26KT 21/19 A2985 RMK A01 T02070190  RH  090%=      5-min Rain = 0
KAM2 262335Z 15021KT 21/19 A2984 RMK A01 T02070190  RH  090%=      5-min Rain = 0
KAM2 262336Z 15023G28KT 21/19 A2984 RMK A01 T02070190  RH  090%=      5-min Rain = 0
KAM2 262337Z 15020KT 21/19 A2984 RMK A01 T02070190  RH  090%=      5-min Rain = 0
KAM2 262338Z 15019G25KT 21/19 A2984 RMK A01 T02070190  RH  090%=      5-min Rain = 0
KAM2 262339Z 15018KT 21/19 A2983 RMK A01 T02070191  RH  090%=      5-min Rain = 0
KAM2 262340Z 16020G25KT 21/19 A2983 RMK A01 T02070191  RH  091%=      5-min Rain = 0
KAM2 262341Z 15017KT 21/19 A2983 RMK A01 T02070190  RH  090%=      5-min Rain = 0
KAM2 262342Z 15014KT 21/19 A2983 RMK A01 T02070191  RH  091%=      5-min Rain = 0
KAM2 262343Z 15020G27KT 21/19 A2983 RMK A01 T02070191  RH  091%=      5-min Rain = 0
KAM2 262344Z 15021KT 21/19 A2983 RMK A01 T02070190  RH  090%=      5-min Rain = 0
KAM2 262345Z 15022G27KT 21/19 A2983 RMK A01 T02070190  RH  090%=      5-min Rain = 0
KAM2 262346Z 15025G34KT 21/19 A2983 RMK A01 T02070189  RH  089%=      5-min Rain = 0
KAM2 262347Z 15025G30KT 21/19 A2983 RMK A01 T02070189  RH  089%=      5-min Rain = 0
KAM2 262348Z 15025G30KT 21/19 A2983 RMK A01 T02070190  RH  090%=      5-min Rain = 0
KAM2 262349Z 16024G31KT 21/19 A2983 RMK A01 T02060189  RH  090%=      5-min Rain = 0
KAM2 262350Z 15023G30KT 21/19 A2983 RMK A01 T02060190  RH  090%=      5-min Rain = 0
KAM2 262351Z 15020G27KT 21/19 A2983 RMK A01 T02060190  RH  091%=      5-min Rain = 0
KAM2 262352Z 15025G30KT 21/19 A2983 RMK A01 T02060190  RH  091%=      5-min Rain = 0
KAM2 262353Z 15021KT 21/19 A2983 RMK A01 T02060190  RH  090%=      5-min Rain = 0
KAM2 262354Z 15020G29KT 21/19 A2983 RMK A01 T02060190  RH  090%=      5-min Rain = 0
KAM2 262355Z 15025G30KT 21/19 A2982 RMK A01 T02050189  RH  090%=      5-min Rain = 0
KAM2 262356Z 15024KT 21/19 A2982 RMK A01 T02050189  RH  090%=      5-min Rain = 0
KAM2 262357Z 15024G30KT 21/19 A2982 RMK A01 T02050189  RH  090%=      5-min Rain = 0
KAM2 262358Z 15023G28KT 21/19 A2982 RMK A01 T02050188  RH  090%=      5-min Rain = 0
KAM2 262359Z 15023G28KT 21/19 A2982 RMK A01 T02050188  RH  090%=      5-min Rain = 0
KAM2 270000Z 15024KT 21/19 A2982 RMK A01 T02060189  RH  090%=      5-min Rain = 0
KAM2 270001Z 16023G28KT 21/19 A2982 RMK A01 T02060189  RH  090%=      5-min Rain = 0
KAM2 270002Z 16023KT 21/19 A2982 RMK A01 T02060188  RH  090%=      5-min Rain = 0
KAM2 270003Z 16023G32KT 21/19 A2982 RMK A01 T02060188  RH  090%=      5-min Rain = 0
KAM2 270004Z 15023KT 21/19 A2983 RMK A01 T02060189  RH  090%=      5-min Rain = 0
KAM2 270005Z 16022G28KT 21/19 A2983 RMK A01 T02070189  RH  090%=      5-min Rain = 0
KAM2 270006Z 15022G30KT 21/19 A2984 RMK A01 T02070190  RH  090%=      5-min Rain = 0
KAM2 270007Z 16020G26KT 21/19 A2984 RMK A01 T02070189  RH  090%=      5-min Rain = 0
KAM2 270008Z 16022G30KT 21/19 A2984 RMK A01 T02070190  RH  090%=      5-min Rain = 0
KAM2 270009Z 16025KT 21/19 A2984 RMK A01 T02070189  RH  090%=      5-min Rain = 0
KAM2 270010Z 15026G31KT 21/19 A2984 RMK A01 T02070189  RH  090%=      5-min Rain = 0
KAM2 270011Z 16025KT 21/19 A2984 RMK A01 T02070189  RH  090%=      5-min Rain = 0
KAM2 270012Z 16028KT 21/19 A2984 RMK A01 T02070189  RH  090%=      5-min Rain = 0
KAM2 270013Z 16021G28KT 21/19 A2984 RMK A01 T02070189  RH  090%=      5-min Rain = 0
KAM2 270014Z 16016G21KT 21/19 A2984 RMK A01 T02060190  RH  090%=      5-min Rain = 0
KAM2 270015Z 15020G27KT 21/19 A2984 RMK A01 T02060190  RH  090%=      5-min Rain = 0
KAM2 270016Z 15023G29KT 21/19 A2983 RMK A01 T02060190  RH  090%=      5-min Rain = 0
KAM2 270017Z 16020G25KT 21/19 A2983 RMK A01 T02060189  RH  090%=      5-min Rain = 0
KAM2 270018Z 16023KT 21/19 A2983 RMK A01 T02060189  RH  090%=      5-min Rain = 0
KAM2 270019Z 15021G26KT 21/19 A2983 RMK A01 T02060189  RH  090%=      5-min Rain = 0
KAM2 270020Z 16019G24KT 21/19 A2983 RMK A01 T02060189  RH  090%=      5-min Rain = 0
KAM2 270021Z 15017KT 21/19 A2983 RMK A01 T02060190  RH  090%=      5-min Rain = 0
KAM2 270022Z 15021KT 21/19 A2983 RMK A01 T02060190  RH  091%=      5-min Rain = 0
KAM2 270023Z 15020KT 21/19 A2982 RMK A01 T02060190  RH  091%=      5-min Rain = 0
KAM2 270024Z 15015KT 21/19 A2982 RMK A01 T02060190  RH  091%=      5-min Rain = 0
KAM2 270025Z 16020G26KT 21/19 A2982 RMK A01 T02060190  RH  091%=      5-min Rain = 0
KAM2 270026Z 15019KT 21/19 A2981 RMK A01 T02060190  RH  090%=      5-min Rain = 0
KAM2 270027Z 14021G26KT 21/19 A2981 RMK A01 T02070190  RH  090%=      5-min Rain = 0
KAM2 270028Z 15023KT 21/19 A298 RMK A01 T02080190  RH  090%=      5-min Rain = 0
KAM2 270029Z 14021KT 21/19 A298 RMK A01 T02080190  RH  089%=      5-min Rain = 0
KAM2 270030Z 14021G29KT 21/19 A298 RMK A01 T02090190  RH  089%=      5-min Rain = 0
KAM2 270031Z 14018G23KT 21/19 A2979 RMK A01 T02100190  RH  089%=      5-min Rain = 0
KAM2 270032Z 14022G27KT 21/19 A2979 RMK A01 T02100191  RH  089%=      5-min Rain = 0
KAM2 270033Z 15021G27KT 21/19 A2979 RMK A01 T02110190  RH  088%=      5-min Rain = 0
KAM2 270034Z 15017G24KT 21/19 A2978 RMK A01 T02110191  RH  088%=      5-min Rain = 0
KAM2 270035Z 14015KT 21/19 A2978 RMK A01 T02110191  RH  089%=      5-min Rain = 0
KAM2 270036Z 15018G27KT 21/19 A2978 RMK A01 T02100192  RH  089%=      5-min Rain = 0
KAM2 270037Z 14018G25KT 21/19 A2978 RMK A01 T02100191  RH  089%=      5-min Rain = 0
KAM2 270038Z 15018KT 21/19 A2978 RMK A01 T02090191  RH  089%=      5-min Rain = 0
KAM2 270039Z 15021G27KT 21/19 A2978 RMK A01 T02080191  RH  090%=      5-min Rain = 0
KAM2 270040Z 15022KT 21/19 A2978 RMK A01 T02080191  RH  090%=      5-min Rain = 0
KAM2 270041Z 14021G27KT 21/19 A2978 RMK A01 T02080191  RH  090%=      5-min Rain = 0
KAM2 270042Z 15018KT 21/19 A2978 RMK A01 T02080191  RH  090%=      5-min Rain = 0
KAM2 270043Z 15020KT 21/19 A2978 RMK A01 T02070191  RH  090%=      5-min Rain = 0
KAM2 270044Z 14021KT 21/19 A2978 RMK A01 T02070191  RH  090%=      5-min Rain = 0
KAM2 270045Z 15021G27KT 21/19 A2978 RMK A01 T02070191  RH  090%=      5-min Rain = 0
KAM2 270046Z 15020G25KT 21/19 A2979 RMK A01 T02080191  RH  090%=      5-min Rain = 0
KAM2 270047Z 15020G25KT 21/19 A2979 RMK A01 T02070191  RH  090%=      5-min Rain = 0
KAM2 270048Z 16021KT 21/19 A2979 RMK A01 T02070191  RH  090%=      5-min Rain = 0
KAM2 270049Z 16025G32KT 21/19 A2979 RMK A01 T02070191  RH  090%=      5-min Rain = 0
KAM2 270050Z 16023G28KT 21/19 A298 RMK A01 T02070191  RH  090%=      5-min Rain = 0
KAM2 270051Z 15026G32KT 21/19 A298 RMK A01 T02070191  RH  090%=      5-min Rain = 0
KAM2 270052Z 16024G34KT 21/19 A298 RMK A01 T02070190  RH  090%=      5-min Rain = 0
KAM2 270053Z 16026G33KT 21/19 A298 RMK A01 T02070190  RH  090%=      5-min Rain = 0
KAM2 270054Z 16022G27KT 21/19 A2981 RMK A01 T02070190  RH  090%=      5-min Rain = 0
KAM2 270055Z 16023G29KT 21/19 A2981 RMK A01 T02070190  RH  090%=      5-min Rain = 0
KAM2 270056Z 16022G28KT 21/19 A2981 RMK A01 T02070190  RH  090%=      5-min Rain = 0
KAM2 270057Z 16022KT 21/19 A2982 RMK A01 T02070190  RH  090%=      5-min Rain = 0
KAM2 270058Z 16020G26KT 21/19 A2982 RMK A01 T02070191  RH  090%=      5-min Rain = 0
KAM2 270059Z 16027G32KT 21/19 A2982 RMK A01 T02080191  RH  090%=      5-min Rain = 0
KAM2 270100Z 16024G29KT 21/19 A2982 RMK A01 T02080190  RH  090%=      5-min Rain = 0
KAM2 270101Z 16025G31KT 21/19 A2982 RMK A01 T02090190  RH  089%=      5-min Rain = 0
KAM2 270102Z 16025G32KT 21/19 A2983 RMK A01 T02090190  RH  089%=      5-min Rain = 0
KAM2 270103Z 16023G31KT 21/19 A2983 RMK A01 T02100190  RH  089%=      5-min Rain = 0
KAM2 270104Z 16023G29KT 21/19 A2983 RMK A01 T02100190  RH  089%=      5-min Rain = 0
KAM2 270105Z 17026G32KT 21/19 A2983 RMK A01 T02100191  RH  088%=      5-min Rain = 0
KAM2 270106Z 16027KT 21/19 A2983 RMK A01 T02110190  RH  088%=      5-min Rain = 0
KAM2 270107Z 16027G32KT 21/19 A2983 RMK A01 T02110190  RH  088%=      5-min Rain = 0
KAM2 270108Z 17026G31KT 21/19 A2983 RMK A01 T02110190  RH  087%=      5-min Rain = 0
KAM2 270109Z 16024KT 21/19 A2983 RMK A01 T02120190  RH  087%=      5-min Rain = 0
KAM2 270110Z 17023KT 21/19 A2983 RMK A01 T02120190  RH  088%=      5-min Rain = 0
KAM2 270111Z 16020G25KT 21/19 A2983 RMK A01 T02110190  RH  088%=      5-min Rain = 0
KAM2 270112Z 17021G27KT 21/19 A2984 RMK A01 T02110190  RH  088%=      5-min Rain = 0
KAM2 270113Z 16026G35KT 21/19 A2983 RMK A01 T02110190  RH  088%=      5-min Rain = 0
KAM2 270114Z 16022G27KT 21/19 A2983 RMK A01 T02110189  RH  088%=      5-min Rain = 0
KAM2 270115Z 16020G28KT 21/19 A2983 RMK A01 T02110189  RH  088%=      5-min Rain = 0
KAM2 270116Z 17024G31KT 21/19 A2982 RMK A01 T02110190  RH  088%=      5-min Rain = 0
KAM2 270117Z 16020G25KT 21/19 A2983 RMK A01 T02100189  RH  088%=      5-min Rain = 0
KAM2 270118Z 16024G30KT 21/19 A2982 RMK A01 T02110190  RH  088%=      5-min Rain = 0
KAM2 270119Z 16022G30KT 21/19 A2983 RMK A01 T02100190  RH  088%=      5-min Rain = 0
KAM2 270120Z 17022G29KT 21/19 A2983 RMK A01 T02100190  RH  088%=      5-min Rain = 0
KAM2 270121Z 16020KT 21/19 A2983 RMK A01 T02100190  RH  088%=      5-min Rain = 0
KAM2 270122Z 16023KT 21/19 A2983 RMK A01 T02100190  RH  088%=      5-min Rain = 0
KAM2 270123Z 16023KT 21/19 A2983 RMK A01 T02100190  RH  088%=      5-min Rain = 0
KAM2 270124Z 16025G30KT 21/19 A2983 RMK A01 T02100190  RH  088%=      5-min Rain = 0
KAM2 270125Z 16024G31KT 21/19 A2983 RMK A01 T02100189  RH  088%=      5-min Rain = 0
KAM2 270126Z 16022G27KT 21/19 A2983 RMK A01 T02110190  RH  088%=      5-min Rain = 0
KAM2 270127Z 16024G35KT 21/19 A2983 RMK A01 T02110190  RH  088%=      5-min Rain = 0
KAM2 270128Z 16027G33KT 21/19 A2983 RMK A01 T02110190  RH  088%=      5-min Rain = 0
KAM2 270129Z 16027G33KT 21/19 A2983 RMK A01 T02110190  RH  087%=      5-min Rain = 0
KAM2 270130Z 16022G28KT 21/19 A2983 RMK A01 T02120190  RH  087%=      5-min Rain = 0
KAM2 270131Z 16020KT 21/19 A2984 RMK A01 T02120190  RH  088%=      5-min Rain = 0
KAM2 270132Z 16026G32KT 21/19 A2984 RMK A01 T02110190  RH  088%=      5-min Rain = 0
KAM2 270133Z 16022G28KT 21/19 A2984 RMK A01 T02110190  RH  088%=      5-min Rain = 0
KAM2 270134Z 17020KT 21/19 A2984 RMK A01 T02120190  RH  088%=      5-min Rain = 0
KAM2 270135Z 17023G28KT 21/19 A2984 RMK A01 T02120191  RH  088%=      5-min Rain = 0
KAM2 270136Z 17022G30KT 21/19 A2985 RMK A01 T02120190  RH  088%=      5-min Rain = 0
KAM2 270137Z 17025KT 21/19 A2985 RMK A01 T02110190  RH  088%=      5-min Rain = 0
KAM2 270138Z 17023G29KT 21/19 A2985 RMK A01 T02120190  RH  087%=      5-min Rain = 0
KAM2 270139Z 17022KT 21/19 A2985 RMK A01 T02130190  RH  087%=      5-min Rain = 0
KAM2 270140Z 17023G28KT 21/19 A2986 RMK A01 T02130190  RH  087%=      5-min Rain = 0
KAM2 270141Z 17020G27KT 21/19 A2986 RMK A01 T02130190  RH  087%=      5-min Rain = 0
KAM2 270142Z 17022KT 21/19 A2986 RMK A01 T02130190  RH  087%=      5-min Rain = 0
KAM2 270143Z 17021G26KT 21/19 A2987 RMK A01 T02130190  RH  087%=      5-min Rain = 0
KAM2 270144Z 17020G26KT 21/19 A2987 RMK A01 T02130190  RH  087%=      5-min Rain = 0
KAM2 270145Z 17022G28KT 21/19 A2987 RMK A01 T02130191  RH  087%=      5-min Rain = 0
KAM2 270146Z 17021G26KT 21/19 A2987 RMK A01 T02130191  RH  087%=      5-min Rain = 0
KAM2 270147Z 17022G28KT 21/19 A2987 RMK A01 T02130190  RH  087%=      5-min Rain = 0
KAM2 270148Z 17022KT 21/19 A2987 RMK A01 T02130190  RH  087%=      5-min Rain = 0
KAM2 270149Z 18019G25KT 21/19 A2988 RMK A01 T02140190  RH  087%=      5-min Rain = 0
KAM2 270150Z 18017KT 21/19 A2988 RMK A01 T02140191  RH  087%=      5-min Rain = 0
KAM2 270151Z 17018G24KT 21/19 A2988 RMK A01 T02130191  RH  087%=      5-min Rain = 0
KAM2 270152Z 18017KT 21/19 A2989 RMK A01 T02130191  RH  087%=      5-min Rain = 0
KAM2 270153Z 18017KT 21/19 A2989 RMK A01 T02130191  RH  087%=      5-min Rain = 0
KAM2 270154Z 18017G24KT 21/19 A2989 RMK A01 T02130191  RH  087%=      5-min Rain = 0
KAM2 270155Z 18013KT 21/19 A2989 RMK A01 T02130191  RH  087%=      5-min Rain = 0
KAM2 270156Z 18014KT 21/19 A299 RMK A01 T02130191  RH  087%=      5-min Rain = 0
KAM2 270157Z 19015G20KT 21/19 A299 RMK A01 T02130192  RH  087%=      5-min Rain = 0
KAM2 270158Z 19016G21KT 21/19 A2991 RMK A01 T02130192  RH  087%=      5-min Rain = 0
KAM2 270159Z 19013KT 21/19 A2991 RMK A01 T02130191  RH  087%=      5-min Rain = 0
KAM2 270200Z 19014KT 21/19 A2991 RMK A01 T02130192  RH  087%=      5-min Rain = 0
KAM2 270201Z 20013KT 21/19 A2991 RMK A01 T02130191  RH  087%=      5-min Rain = 0
KAM2 270202Z 19015G21KT 21/19 A2991 RMK A01 T02140191  RH  087%=      5-min Rain = 0
KAM2 270203Z 21009G15KT 21/19 A2992 RMK A01 T02140191  RH  087%=      5-min Rain = 0
KAM2 270204Z 22013G18KT 21/19 A2992 RMK A01 T02140191  RH  087%=      5-min Rain = 0
KAM2 270205Z 23012KT 22/19 A2992 RMK A01 T02150192  RH  087%=      5-min Rain = 0
KAM2 270206Z 23012KT 22/19 A2992 RMK A01 T02150192  RH  087%=      5-min Rain = 0
KAM2 270207Z 22011KT 22/19 A2992 RMK A01 T02150192  RH  087%=      5-min Rain = 0
KAM2 270208Z 23013G18KT 22/19 A2992 RMK A01 T02150192  RH  087%=      5-min Rain = 0
KAM2 270209Z 23012KT 22/19 A2992 RMK A01 T02160193  RH  087%=      5-min Rain = 0
KAM2 270210Z 23010KT 22/19 A2992 RMK A01 T02160193  RH  087%=      5-min Rain = 0
KAM2 270211Z 22011G16KT 22/19 A2992 RMK A01 T02160194  RH  087%=      5-min Rain = 0
KAM2 270212Z 23012G17KT 22/19 A2992 RMK A01 T02150194  RH  088%=      5-min Rain = 0
KAM2 270213Z 24014KT 22/20 A2994 RMK A01 T02150195  RH  088%=      5-min Rain = 0
KAM2 270214Z 26020KT 21/20 A2995 RMK A01 T02140195  RH  089%=      5-min Rain = 0
KAM2 270215Z 26025G31KT 21/17 A2995 RMK A01 T02100165  RH  076%=      5-min Rain = 0
KAM2 270216Z 27024G30KT 20/14 A2995 RMK A01 T01990135  RH  067%=      5-min Rain = 0.01
KAM2 270217Z 27021G27KT 19/13 A2996 RMK A01 T01850129  RH  070%=      5-min Rain = 0.01
KAM2 270218Z 27018G25KT 17/13 A2996 RMK A01 T01720127  RH  075%=      5-min Rain = 0.02
KAM2 270219Z 26015KT 17/13 A2997 RMK A01 T01650128  RH  079%=      5-min Rain = 0.01
KAM2 270220Z 25016G21KT 16/13 A2998 RMK A01 T01600129  RH  082%=      5-min Rain = 0.01
KAM2 270221Z 26015KT 16/13 A2998 RMK A01 T01560130  RH  084%=      5-min Rain = 0.02
KAM2 270222Z 27012G17KT 15/13 A2998 RMK A01 T01530130  RH  086%=      5-min Rain = 0.01
KAM2 270223Z 28011KT 15/13 A2997 RMK A01 T01510129  RH  087%=      5-min Rain = 0.01
KAM2 270224Z 27007KT 15/13 A2997 RMK A01 T01500130  RH  088%=      5-min Rain = 0
KAM2 270225Z 27006KT 15/13 A2997 RMK A01 T01480130  RH  089%=      5-min Rain = 0
KAM2 270226Z 28006KT 15/13 A2996 RMK A01 T01470131  RH  090%=      5-min Rain = 0.01
KAM2 270227Z 29010G15KT 15/13 A2997 RMK A01 T01470132  RH  091%=      5-min Rain = 0
KAM2 270228Z 28010KT 15/13 A2997 RMK A01 T01460132  RH  091%=      5-min Rain = 0
KAM2 270229Z 28009KT 15/13 A2997 RMK A01 T01460131  RH  091%=      5-min Rain = 0.01
KAM2 270230Z 30006KT 15/13 A2996 RMK A01 T01460131  RH  091%=      5-min Rain = 0
KAM2 270231Z 32008KT 15/13 A2996 RMK A01 T01450131  RH  091%=      5-min Rain = 0.02
KAM2 270232Z 33005KT 15/13 A2995 RMK A01 T01450131  RH  091%=      5-min Rain = 0.01
KAM2 270233Z 28005KT 14/13 A2996 RMK A01 T01440130  RH  092%=      5-min Rain = 0.03
KAM2 270234Z 26008KT 14/13 A2996 RMK A01 T01430130  RH  092%=      5-min Rain = 0.02
KAM2 270235Z 22009G15KT 14/13 A2997 RMK A01 T01440129  RH  091%=      5-min Rain = 0.03
KAM2 270236Z 21010KT 14/13 A2998 RMK A01 T01440131  RH  091%=      5-min Rain = 0.02
KAM2 270237Z 19011KT 14/13 A2999 RMK A01 T01440132  RH  092%=      5-min Rain = 0.04
KAM2 270238Z 17011G17KT 14/13 A2998 RMK A01 T01430132  RH  093%=      5-min Rain = 0.05
KAM2 270239Z 18012KT 14/13 A2998 RMK A01 T01420132  RH  093%=      5-min Rain = 0.02
KAM2 270240Z 18012KT 14/13 A2998 RMK A01 T01430132  RH  094%=      5-min Rain = 0.01
KAM2 270241Z 18015KT 14/13 A2999 RMK A01 T01430133  RH  094%=      5-min Rain = 0.03
KAM2 270242Z 18013KT 14/13 A2999 RMK A01 T01430134  RH  095%=      5-min Rain = 0.04
KAM2 270243Z 18012G19KT 14/14 A2998 RMK A01 T01420135  RH  095%=      5-min Rain = 0.03
KAM2 270244Z 18016KT 14/13 A2998 RMK A01 T01410134  RH  095%=      5-min Rain = 0.02
KAM2 270245Z 19015KT 14/13 A2998 RMK A01 T01410133  RH  095%=      5-min Rain = 0.02
KAM2 270246Z 17016KT 14/13 A2997 RMK A01 T01410132  RH  094%=      5-min Rain = 0.02
KAM2 270247Z 16018KT 14/13 A2997 RMK A01 T01410131  RH  094%=      5-min Rain = 0.01
KAM2 270248Z 17017KT 14/13 A2997 RMK A01 T01410131  RH  094%=      5-min Rain = 0.01
KAM2 270249Z 17011KT 14/13 A2995 RMK A01 T01410129  RH  093%=      5-min Rain = 0.03
KAM2 270250Z 16006G11KT 14/13 A2994 RMK A01 T01410129  RH  093%=      5-min Rain = 0.02
KAM2 270251Z 15011KT 14/13 A2992 RMK A01 T01410129  RH  093%=      5-min Rain = 0.01
KAM2 270252Z 14005KT 14/13 A2991 RMK A01 T01400129  RH  093%=      5-min Rain = 0
KAM2 270253Z 20004KT 14/13 A299 RMK A01 T01390129  RH  093%=      5-min Rain = 0
KAM2 270254Z 17013G18KT 14/13 A2991 RMK A01 T01390128  RH  093%=      5-min Rain = 0.01
KAM2 270255Z 16020KT 14/13 A2991 RMK A01 T01420128  RH  091%=      5-min Rain = 0
KAM2 270256Z 16013G19KT 14/13 A2991 RMK A01 T01430128  RH  091%=      5-min Rain = 0
KAM2 270257Z 16009KT 14/13 A299 RMK A01 T01410128  RH  092%=      5-min Rain = 0
KAM2 270258Z 17009KT 14/13 A299 RMK A01 T01400127  RH  092%=      5-min Rain = 0
KAM2 270259Z 17007KT 14/13 A299 RMK A01 T01390127  RH  092%=      5-min Rain = 0
KAM2 270300Z 18008KT 14/13 A2991 RMK A01 T01390127  RH  093%=      5-min Rain = 0
KAM2 270301Z 17013KT 14/13 A2992 RMK A01 T01380128  RH  093%=      5-min Rain = 0
KAM2 270302Z 17012KT 14/13 A2992 RMK A01 T01380128  RH  094%=      5-min Rain = 0
KAM2 270303Z 18012KT 14/13 A2992 RMK A01 T01380129  RH  094%=      5-min Rain = 0
KAM2 270304Z 18012KT 14/13 A2993 RMK A01 T01380128  RH  094%=      5-min Rain = 0
KAM2 270305Z 19011KT 14/13 A2993 RMK A01 T01390129  RH  093%=      5-min Rain = 0
KAM2 270306Z 19012KT 14/13 A2994 RMK A01 T01400129  RH  093%=      5-min Rain = 0
KAM2 270307Z 21011KT 14/13 A2993 RMK A01 T01410129  RH  093%=      5-min Rain = 0
KAM2 270308Z 19010KT 14/13 A2993 RMK A01 T01410129  RH  092%=      5-min Rain = 0
KAM2 270309Z 18010KT 14/13 A2992 RMK A01 T01410129  RH  092%=      5-min Rain = 0
KAM2 270310Z 17008KT 14/13 A2992 RMK A01 T01410129  RH  093%=      5-min Rain = 0
KAM2 270311Z 17009KT 14/13 A2992 RMK A01 T01400129  RH  093%=      5-min Rain = 0
KAM2 270312Z 16009KT 14/13 A2992 RMK A01 T01400129  RH  093%=      5-min Rain = 0
KAM2 270313Z 15012KT 14/13 A2992 RMK A01 T01400129  RH  093%=      5-min Rain = 0
KAM2 270314Z 15011KT 14/13 A2991 RMK A01 T01400128  RH  093%=      5-min Rain = 0
KAM2 270315Z 15013KT 14/13 A2991 RMK A01 T01410128  RH  092%=      5-min Rain = 0
KAM2 270316Z 15014KT 14/13 A2991 RMK A01 T01420129  RH  092%=      5-min Rain = 0
KAM2 270317Z 15012KT 14/13 A299 RMK A01 T01440128  RH  091%=      5-min Rain = 0
KAM2 270318Z 15011KT 14/13 A299 RMK A01 T01440128  RH  090%=      5-min Rain = 0
KAM2 270319Z 16013KT 14/13 A299 RMK A01 T01440128  RH  090%=      5-min Rain = 0
KAM2 270320Z 16010KT 15/13 A299 RMK A01 T01450128  RH  090%=      5-min Rain = 0
KAM2 270321Z 16009KT 14/13 A2989 RMK A01 T01440129  RH  090%=      5-min Rain = 0
KAM2 270322Z 15011KT 14/13 A299 RMK A01 T01430129  RH  091%=      5-min Rain = 0
KAM2 270323Z 17009KT 14/13 A299 RMK A01 T01430128  RH  091%=      5-min Rain = 0
KAM2 270324Z 17007KT 14/13 A299 RMK A01 T01440128  RH  091%=      5-min Rain = 0
KAM2 270325Z 17008KT 14/13 A2989 RMK A01 T01440129  RH  091%=      5-min Rain = 0
KAM2 270326Z 17008KT 14/13 A2989 RMK A01 T01440129  RH  091%=      5-min Rain = 0
KAM2 270327Z 17009KT 14/13 A2989 RMK A01 T01440129  RH  091%=      5-min Rain = 0
KAM2 270328Z 17010KT 14/13 A2989 RMK A01 T01440130  RH  091%=      5-min Rain = 0
KAM2 270329Z 17011KT 14/13 A2989 RMK A01 T01440130  RH  091%=      5-min Rain = 0
KAM2 270330Z 16010KT 14/13 A2989 RMK A01 T01430130  RH  091%=      5-min Rain = 0
KAM2 270331Z 16011KT 14/13 A2989 RMK A01 T01430130  RH  091%=      5-min Rain = 0
KAM2 270332Z 16012KT 15/13 A2989 RMK A01 T01450131  RH  091%=      5-min Rain = 0
KAM2 270333Z 16010KT 15/13 A2988 RMK A01 T01460131  RH  091%=      5-min Rain = 0
KAM2 270334Z 16011KT 15/13 A2989 RMK A01 T01470132  RH  091%=      5-min Rain = 0
KAM2 270335Z 16013KT 15/13 A2988 RMK A01 T01480133  RH  091%=      5-min Rain = 0
KAM2 270336Z 17014KT 15/13 A2988 RMK A01 T01500133  RH  090%=      5-min Rain = 0
KAM2 270337Z 17013KT 15/13 A2988 RMK A01 T01520134  RH  089%=      5-min Rain = 0
KAM2 270338Z 16012KT 15/13 A2988 RMK A01 T01530134  RH  089%=      5-min Rain = 0
KAM2 270339Z 16012KT 15/14 A2988 RMK A01 T01540135  RH  089%=      5-min Rain = 0
KAM2 270340Z 17013KT 15/14 A2988 RMK A01 T01530135  RH  089%=      5-min Rain = 0
KAM2 270341Z 17013KT 15/14 A2988 RMK A01 T01540136  RH  089%=      5-min Rain = 0
KAM2 270342Z 16013KT 15/14 A2988 RMK A01 T01540136  RH  089%=      5-min Rain = 0
KAM2 270343Z 17012KT 16/14 A2988 RMK A01 T01550137  RH  089%=      5-min Rain = 0
KAM2 270344Z 16010KT 16/14 A2987 RMK A01 T01560137  RH  089%=      5-min Rain = 0
KAM2 270345Z 16011KT 16/14 A2987 RMK A01 T01560138  RH  089%=      5-min Rain = 0
KAM2 270346Z 17011KT 16/14 A2987 RMK A01 T01560138  RH  089%=      5-min Rain = 0
KAM2 270347Z 17010KT 16/14 A2987 RMK A01 T01570138  RH  089%=      5-min Rain = 0
KAM2 270348Z 17009KT 16/14 A2987 RMK A01 T01570138  RH  088%=      5-min Rain = 0
KAM2 270349Z 17010KT 16/14 A2987 RMK A01 T01570138  RH  089%=      5-min Rain = 0
KAM2 270350Z 17009KT 16/14 A2987 RMK A01 T01570139  RH  089%=      5-min Rain = 0
KAM2 270351Z 16009KT 16/14 A2986 RMK A01 T01570139  RH  089%=      5-min Rain = 0
KAM2 270352Z 17008KT 16/14 A2986 RMK A01 T01570139  RH  090%=      5-min Rain = 0
KAM2 270353Z 17008KT 16/14 A2986 RMK A01 T01560139  RH  090%=      5-min Rain = 0
KAM2 270354Z 17007KT 16/14 A2987 RMK A01 T01550139  RH  090%=      5-min Rain = 0
KAM2 270355Z 18006KT 16/14 A2987 RMK A01 T01550140  RH  091%=      5-min Rain = 0
KAM2 270356Z 19005KT 16/14 A2987 RMK A01 T01550140  RH  091%=      5-min Rain = 0
KAM2 270357Z 20005KT 15/14 A2987 RMK A01 T01540140  RH  091%=      5-min Rain = 0
KAM2 270358Z 23004KT 15/14 A2987 RMK A01 T01540140  RH  091%=      5-min Rain = 0
KAM2 270359Z 24005KT 16/14 A2987 RMK A01 T01550139  RH  091%=      5-min Rain = 0
KAM2 270400Z 24006KT 15/14 A2987 RMK A01 T01540139  RH  090%=      5-min Rain = 0
KAM2 270401Z 24006KT 15/14 A2987 RMK A01 T01540138  RH  091%=      5-min Rain = 0
KAM2 270402Z 24007KT 15/14 A2987 RMK A01 T01530138  RH  091%=      5-min Rain = 0
KAM2 270403Z 25008KT 15/14 A2988 RMK A01 T01530139  RH  091%=      5-min Rain = 0
KAM2 270404Z 24008KT 15/14 A2988 RMK A01 T01530139  RH  091%=      5-min Rain = 0
KAM2 270405Z 24007KT 15/14 A2989 RMK A01 T01530140  RH  092%=      5-min Rain = 0
KAM2 270406Z 24007KT 15/14 A2989 RMK A01 T01530140  RH  092%=      5-min Rain = 0
KAM2 270407Z 24008KT 15/14 A2989 RMK A01 T01530140  RH  092%=      5-min Rain = 0
KAM2 270408Z 24009KT 15/14 A2989 RMK A01 T01540141  RH  092%=      5-min Rain = 0
KAM2 270409Z 24009KT 15/14 A2989 RMK A01 T01540142  RH  092%=      5-min Rain = 0
KAM2 270410Z 25008KT 16/14 A299 RMK A01 T01560143  RH  092%=      5-min Rain = 0
KAM2 270411Z 24006KT 16/14 A299 RMK A01 T01560143  RH  092%=      5-min Rain = 0
KAM2 270412Z 20003KT 16/14 A2989 RMK A01 T01560143  RH  092%=      5-min Rain = 0
KAM2 270413Z 15003KT 16/14 A2988 RMK A01 T01560143  RH  092%=      5-min Rain = 0
KAM2 270414Z 15005KT 16/14 A2987 RMK A01 T01560144  RH  092%=      5-min Rain = 0
KAM2 270415Z 15007KT 16/14 A2987 RMK A01 T01560144  RH  093%=      5-min Rain = 0
KAM2 270416Z 14008KT 16/14 A2987 RMK A01 T01550144  RH  093%=      5-min Rain = 0
KAM2 270417Z 15008KT 16/15 A2987 RMK A01 T01560145  RH  093%=      5-min Rain = 0
KAM2 270418Z 17006KT 16/15 A2988 RMK A01 T01570146  RH  093%=      5-min Rain = 0
KAM2 270419Z 23005KT 16/15 A2989 RMK A01 T01570146  RH  093%=      5-min Rain = 0
KAM2 270420Z 28010KT 16/15 A299 RMK A01 T01570146  RH  093%=      5-min Rain = 0
KAM2 270421Z 29013KT 16/15 A2991 RMK A01 T01560146  RH  094%=      5-min Rain = 0
KAM2 270422Z 29011KT 16/15 A2991 RMK A01 T01550145  RH  093%=      5-min Rain = 0
KAM2 270423Z 30009KT 16/14 A299 RMK A01 T01550143  RH  093%=      5-min Rain = 0
KAM2 270424Z 31013G21KT 16/14 A2989 RMK A01 T01550142  RH  092%=      5-min Rain = 0
KAM2 270425Z 30021G26KT 16/15 A2988 RMK A01 T01560145  RH  093%=      5-min Rain = 0
KAM2 270426Z 29020KT 16/15 A2988 RMK A01 T01610151  RH  094%=      5-min Rain = 0
KAM2 270427Z 29013KT 16/15 A2989 RMK A01 T01640154  RH  093%=      5-min Rain = 0
KAM2 270428Z 31008KT 17/15 A2989 RMK A01 T01660153  RH  092%=      5-min Rain = 0
KAM2 270429Z 33003KT 17/15 A2988 RMK A01 T01660152  RH  091%=      5-min Rain = 0
KAM2 270430Z 15006KT 17/15 A2988 RMK A01 T01660152  RH  091%=      5-min Rain = 0
KAM2 270431Z 17007KT 17/15 A2988 RMK A01 T01650150  RH  091%=      5-min Rain = 0
KAM2 270432Z 18006KT 17/15 A2988 RMK A01 T01660153  RH  092%=      5-min Rain = 0
KAM2 270433Z 18003KT 17/16 A2988 RMK A01 T01680158  RH  093%=      5-min Rain = 0
KAM2 270434Z 23004KT 17/16 A2989 RMK A01 T01720161  RH  093%=      5-min Rain = 0
KAM2 270435Z 16007KT 17/16 A2989 RMK A01 T01740160  RH  092%=      5-min Rain = 0
KAM2 270436Z 15007KT 18/16 A299 RMK A01 T01750160  RH  091%=      5-min Rain = 0
KAM2 270437Z 18005KT 18/16 A299 RMK A01 T01760159  RH  090%=      5-min Rain = 0
KAM2 270438Z 21005KT 18/16 A299 RMK A01 T01760159  RH  090%=      5-min Rain = 0
KAM2 270439Z 22006KT 18/16 A299 RMK A01 T01760159  RH  090%=      5-min Rain = 0
KAM2 270440Z 21004KT 18/16 A2989 RMK A01 T01770160  RH  090%=      5-min Rain = 0
KAM2 270441Z 13004KT 18/16 A2988 RMK A01 T01770160  RH  090%=      5-min Rain = 0
KAM2 270442Z 11008KT 18/16 A2987 RMK A01 T01760160  RH  091%=      5-min Rain = 0
KAM2 270443Z 11009KT 17/16 A2986 RMK A01 T01740160  RH  091%=      5-min Rain = 0
KAM2 270444Z 12007KT 17/16 A2987 RMK A01 T01730160  RH  092%=      5-min Rain = 0
KAM2 270445Z 13004KT 17/16 A2988 RMK A01 T01720158  RH  091%=      5-min Rain = 0
KAM2 270446Z 19002KT 17/16 A2989 RMK A01 T01720158  RH  092%=      5-min Rain = 0
KAM2 270447Z 25002KT 17/16 A2989 RMK A01 T01720159  RH  092%=      5-min Rain = 0
KAM2 270448Z 27002KT 17/16 A2989 RMK A01 T01710159  RH  093%=      5-min Rain = 0
KAM2 270449Z 27002KT 17/16 A2988 RMK A01 T01710160  RH  093%=      5-min Rain = 0
KAM2 270450Z 26002KT 17/16 A2988 RMK A01 T01710161  RH  094%=      5-min Rain = 0
KAM2 270451Z 25001KT 17/16 A2988 RMK A01 T01710161  RH  094%=      5-min Rain = 0
KAM2 270452Z 25001KT 17/16 A2988 RMK A01 T01700161  RH  094%=      5-min Rain = 0
KAM2 270453Z 21001KT 17/16 A2988 RMK A01 T01700161  RH  094%=      5-min Rain = 0
KAM2 270454Z 12002KT 17/16 A2988 RMK A01 T01700161  RH  094%=      5-min Rain = 0
KAM2 270455Z 10003KT 17/16 A2988 RMK A01 T01700161  RH  094%=      5-min Rain = 0
KAM2 270456Z 10004KT 17/16 A2988 RMK A01 T01690159  RH  094%=      5-min Rain = 0
KAM2 270457Z 10004KT 17/16 A2988 RMK A01 T01680158  RH  093%=      5-min Rain = 0
KAM2 270458Z 09004KT 17/16 A2988 RMK A01 T01680157  RH  093%=      5-min Rain = 0
KAM2 270459Z 09003KT 17/16 A2988 RMK A01 T01680156  RH  093%=      5-min Rain = 0

Page generated in 0.1313 seconds.